<?xml version="1.0" encoding="UTF-8" standalone="no" ?>
<gpx xmlns="http://www.topografix.com/GPX/1/1" xmlns:xsi="http://www.w3.org/2001/XMLSchema-instance" xsi:schemaLocation="http://www.topografix.com/GPX/1/1 http://www.topografix.com/GPX/1/1/gpx.xsd" version="1.1" creator="VisuGPX - https://www.visugpx.com">
  <metadata>
    <name>Saint-Agnan-en-Vercors Marche à pied</name>
  </metadata>
  <trk>
    <name><![CDATA[Saint-Agnan-en-Vercors Marche à pied]]></name>
    <trkseg>
      <trkpt lat="44.96262" lon="5.47677">
        <ele>1330.1</ele>
        <time>2020-06-27T13:29:16.000Z</time>
      </trkpt>
      <trkpt lat="44.96262" lon="5.47679">
        <ele>1330.1</ele>
        <time>2020-06-27T13:29:16.001Z</time>
      </trkpt>
      <trkpt lat="44.9626" lon="5.47679">
        <ele>1330.4</ele>
        <time>2020-06-27T13:29:16.004Z</time>
      </trkpt>
      <trkpt lat="44.96258" lon="5.47681">
        <ele>1330.7</ele>
        <time>2020-06-27T13:29:16.010Z</time>
      </trkpt>
      <trkpt lat="44.96257" lon="5.47679">
        <ele>1330.9</ele>
        <time>2020-06-27T13:29:16.018Z</time>
      </trkpt>
      <trkpt lat="44.96257" lon="5.4768">
        <ele>1330.9</ele>
        <time>2020-06-27T13:29:16.027Z</time>
      </trkpt>
      <trkpt lat="44.96258" lon="5.47677">
        <ele>1330.7</ele>
        <time>2020-06-27T13:29:16.039Z</time>
      </trkpt>
      <trkpt lat="44.96253" lon="5.47678">
        <ele>1331.5</ele>
        <time>2020-06-27T13:29:16.056Z</time>
      </trkpt>
      <trkpt lat="44.96251" lon="5.4768">
        <ele>1331.5</ele>
        <time>2020-06-27T13:29:16.075Z</time>
      </trkpt>
      <trkpt lat="44.96251" lon="5.47679">
        <ele>1331.6</ele>
        <time>2020-06-27T13:29:16.095Z</time>
      </trkpt>
      <trkpt lat="44.96251" lon="5.47682">
        <ele>1331.4</ele>
        <time>2020-06-27T13:29:16.117Z</time>
      </trkpt>
      <trkpt lat="44.9625" lon="5.47675">
        <ele>1331.9</ele>
        <time>2020-06-27T13:29:16.144Z</time>
      </trkpt>
      <trkpt lat="44.96246" lon="5.47668">
        <ele>1332.4</ele>
        <time>2020-06-27T13:29:16.177Z</time>
      </trkpt>
      <trkpt lat="44.96245" lon="5.47672">
        <ele>1332.5</ele>
        <time>2020-06-27T13:29:16.212Z</time>
      </trkpt>
      <trkpt lat="44.96242" lon="5.47669">
        <ele>1332.9</ele>
        <time>2020-06-27T13:29:16.251Z</time>
      </trkpt>
      <trkpt lat="44.96239" lon="5.47672">
        <ele>1332.9</ele>
        <time>2020-06-27T13:29:16.293Z</time>
      </trkpt>
      <trkpt lat="44.96238" lon="5.47669">
        <ele>1333.2</ele>
        <time>2020-06-27T13:29:16.337Z</time>
      </trkpt>
      <trkpt lat="44.96233" lon="5.47676">
        <ele>1333.1</ele>
        <time>2020-06-27T13:29:16.388Z</time>
      </trkpt>
      <trkpt lat="44.96231" lon="5.47671">
        <ele>1333.6</ele>
        <time>2020-06-27T13:29:16.443Z</time>
      </trkpt>
      <trkpt lat="44.9623" lon="5.47676">
        <ele>1333.3</ele>
        <time>2020-06-27T13:29:16.501Z</time>
      </trkpt>
      <trkpt lat="44.96224" lon="5.47671">
        <ele>1334.1</ele>
        <time>2020-06-27T13:29:16.566Z</time>
      </trkpt>
      <trkpt lat="44.96212" lon="5.47667">
        <ele>1335.2</ele>
        <time>2020-06-27T13:29:16.642Z</time>
      </trkpt>
      <trkpt lat="44.96198" lon="5.47658">
        <ele>1336.1</ele>
        <time>2020-06-27T13:29:16.733Z</time>
      </trkpt>
      <trkpt lat="44.96185" lon="5.47642">
        <ele>1337.1</ele>
        <time>2020-06-27T13:29:16.840Z</time>
      </trkpt>
      <trkpt lat="44.96181" lon="5.47627">
        <ele>1337.8</ele>
        <time>2020-06-27T13:29:16.958Z</time>
      </trkpt>
      <trkpt lat="44.96165" lon="5.4761">
        <ele>1338</ele>
        <time>2020-06-27T13:29:17.094Z</time>
      </trkpt>
      <trkpt lat="44.96143" lon="5.47594">
        <ele>1338.2</ele>
        <time>2020-06-27T13:29:17.254Z</time>
      </trkpt>
      <trkpt lat="44.96115" lon="5.4758">
        <ele>1338.7</ele>
        <time>2020-06-27T13:29:17.441Z</time>
      </trkpt>
      <trkpt lat="44.96109" lon="5.47575">
        <ele>1339.1</ele>
        <time>2020-06-27T13:29:17.635Z</time>
      </trkpt>
      <trkpt lat="44.96099" lon="5.4757">
        <ele>1339.7</ele>
        <time>2020-06-27T13:29:17.839Z</time>
      </trkpt>
      <trkpt lat="44.96086" lon="5.47551">
        <ele>1340.8</ele>
        <time>2020-06-27T13:29:18.061Z</time>
      </trkpt>
      <trkpt lat="44.96067" lon="5.47542">
        <ele>1343.4</ele>
        <time>2020-06-27T13:29:18.301Z</time>
      </trkpt>
      <trkpt lat="44.96057" lon="5.47544">
        <ele>1343.4</ele>
        <time>2020-06-27T13:29:18.551Z</time>
      </trkpt>
      <trkpt lat="44.96042" lon="5.47549">
        <ele>1343.1</ele>
        <time>2020-06-27T13:29:18.815Z</time>
      </trkpt>
      <trkpt lat="44.96034" lon="5.47548">
        <ele>1344.1</ele>
        <time>2020-06-27T13:29:19.087Z</time>
      </trkpt>
      <trkpt lat="44.9603" lon="5.47546">
        <ele>1345</ele>
        <time>2020-06-27T13:29:19.363Z</time>
      </trkpt>
      <trkpt lat="44.96029" lon="5.47547">
        <ele>1344.9</ele>
        <time>2020-06-27T13:29:19.640Z</time>
      </trkpt>
      <trkpt lat="44.96026" lon="5.47543">
        <ele>1346</ele>
        <time>2020-06-27T13:29:19.921Z</time>
      </trkpt>
      <trkpt lat="44.95996" lon="5.47548">
        <ele>1348.7</ele>
        <time>2020-06-27T13:29:20.230Z</time>
      </trkpt>
      <trkpt lat="44.95987" lon="5.47552">
        <ele>1349.3</ele>
        <time>2020-06-27T13:29:20.548Z</time>
      </trkpt>
      <trkpt lat="44.95977" lon="5.47549">
        <ele>1350.8</ele>
        <time>2020-06-27T13:29:20.876Z</time>
      </trkpt>
      <trkpt lat="44.95959" lon="5.4756">
        <ele>1352.1</ele>
        <time>2020-06-27T13:29:21.222Z</time>
      </trkpt>
      <trkpt lat="44.95948" lon="5.4756">
        <ele>1352.8</ele>
        <time>2020-06-27T13:29:21.579Z</time>
      </trkpt>
      <trkpt lat="44.95944" lon="5.47562">
        <ele>1352.9</ele>
        <time>2020-06-27T13:29:21.940Z</time>
      </trkpt>
      <trkpt lat="44.95927" lon="5.47558">
        <ele>1354.2</ele>
        <time>2020-06-27T13:29:22.317Z</time>
      </trkpt>
      <trkpt lat="44.95914" lon="5.47564">
        <ele>1354.6</ele>
        <time>2020-06-27T13:29:22.706Z</time>
      </trkpt>
      <trkpt lat="44.95905" lon="5.47565">
        <ele>1355.1</ele>
        <time>2020-06-27T13:29:23.104Z</time>
      </trkpt>
      <trkpt lat="44.95888" lon="5.47575">
        <ele>1355.2</ele>
        <time>2020-06-27T13:29:23.519Z</time>
      </trkpt>
      <trkpt lat="44.95879" lon="5.47577">
        <ele>1355.5</ele>
        <time>2020-06-27T13:29:23.943Z</time>
      </trkpt>
      <trkpt lat="44.95866" lon="5.47583">
        <ele>1356.3</ele>
        <time>2020-06-27T13:29:24.380Z</time>
      </trkpt>
      <trkpt lat="44.95861" lon="5.47583">
        <ele>1357</ele>
        <time>2020-06-27T13:29:24.821Z</time>
      </trkpt>
      <trkpt lat="44.95849" lon="5.47592">
        <ele>1357.8</ele>
        <time>2020-06-27T13:29:25.275Z</time>
      </trkpt>
      <trkpt lat="44.9583" lon="5.47596">
        <ele>1359.8</ele>
        <time>2020-06-27T13:29:25.747Z</time>
      </trkpt>
      <trkpt lat="44.9582" lon="5.47605">
        <ele>1359.9</ele>
        <time>2020-06-27T13:29:26.231Z</time>
      </trkpt>
      <trkpt lat="44.95805" lon="5.47608">
        <ele>1361.2</ele>
        <time>2020-06-27T13:29:26.728Z</time>
      </trkpt>
      <trkpt lat="44.95792" lon="5.47605">
        <ele>1362.9</ele>
        <time>2020-06-27T13:29:27.238Z</time>
      </trkpt>
      <trkpt lat="44.95785" lon="5.47606">
        <ele>1363.6</ele>
        <time>2020-06-27T13:29:27.755Z</time>
      </trkpt>
      <trkpt lat="44.95781" lon="5.47609">
        <ele>1363.7</ele>
        <time>2020-06-27T13:29:28.275Z</time>
      </trkpt>
      <trkpt lat="44.95776" lon="5.47616">
        <ele>1363.4</ele>
        <time>2020-06-27T13:29:28.803Z</time>
      </trkpt>
      <trkpt lat="44.95756" lon="5.47622">
        <ele>1364.7</ele>
        <time>2020-06-27T13:29:29.349Z</time>
      </trkpt>
      <trkpt lat="44.95752" lon="5.47625">
        <ele>1364.7</ele>
        <time>2020-06-27T13:29:29.899Z</time>
      </trkpt>
      <trkpt lat="44.95743" lon="5.47626">
        <ele>1365.4</ele>
        <time>2020-06-27T13:29:30.458Z</time>
      </trkpt>
      <trkpt lat="44.95736" lon="5.47625">
        <ele>1366.2</ele>
        <time>2020-06-27T13:29:31.024Z</time>
      </trkpt>
      <trkpt lat="44.95731" lon="5.47622">
        <ele>1367.1</ele>
        <time>2020-06-27T13:29:31.595Z</time>
      </trkpt>
      <trkpt lat="44.95725" lon="5.47615">
        <ele>1368.5</ele>
        <time>2020-06-27T13:29:32.174Z</time>
      </trkpt>
      <trkpt lat="44.95719" lon="5.47613">
        <ele>1369.3</ele>
        <time>2020-06-27T13:29:32.758Z</time>
      </trkpt>
      <trkpt lat="44.95711" lon="5.47613">
        <ele>1370.1</ele>
        <time>2020-06-27T13:29:33.349Z</time>
      </trkpt>
      <trkpt lat="44.95701" lon="5.47629">
        <ele>1369.3</ele>
        <time>2020-06-27T13:29:33.955Z</time>
      </trkpt>
      <trkpt lat="44.95694" lon="5.47632">
        <ele>1369.5</ele>
        <time>2020-06-27T13:29:34.568Z</time>
      </trkpt>
      <trkpt lat="44.95688" lon="5.47639">
        <ele>1370</ele>
        <time>2020-06-27T13:29:35.188Z</time>
      </trkpt>
      <trkpt lat="44.95675" lon="5.47644">
        <ele>1371.4</ele>
        <time>2020-06-27T13:29:35.821Z</time>
      </trkpt>
      <trkpt lat="44.95665" lon="5.47659">
        <ele>1372.7</ele>
        <time>2020-06-27T13:29:36.467Z</time>
      </trkpt>
      <trkpt lat="44.95661" lon="5.47661">
        <ele>1373.1</ele>
        <time>2020-06-27T13:29:37.117Z</time>
      </trkpt>
      <trkpt lat="44.95654" lon="5.47661">
        <ele>1373.8</ele>
        <time>2020-06-27T13:29:37.774Z</time>
      </trkpt>
      <trkpt lat="44.95644" lon="5.47666">
        <ele>1374.3</ele>
        <time>2020-06-27T13:29:38.441Z</time>
      </trkpt>
      <trkpt lat="44.9564" lon="5.47666">
        <ele>1374.5</ele>
        <time>2020-06-27T13:29:39.111Z</time>
      </trkpt>
      <trkpt lat="44.95631" lon="5.47672">
        <ele>1374.7</ele>
        <time>2020-06-27T13:29:39.791Z</time>
      </trkpt>
      <trkpt lat="44.95612" lon="5.47698">
        <ele>1375</ele>
        <time>2020-06-27T13:29:40.496Z</time>
      </trkpt>
      <trkpt lat="44.95603" lon="5.47706">
        <ele>1375.3</ele>
        <time>2020-06-27T13:29:41.211Z</time>
      </trkpt>
      <trkpt lat="44.95596" lon="5.47709">
        <ele>1375.5</ele>
        <time>2020-06-27T13:29:41.933Z</time>
      </trkpt>
      <trkpt lat="44.9558" lon="5.47707">
        <ele>1376.3</ele>
        <time>2020-06-27T13:29:42.670Z</time>
      </trkpt>
      <trkpt lat="44.9557" lon="5.47708">
        <ele>1376.8</ele>
        <time>2020-06-27T13:29:43.417Z</time>
      </trkpt>
      <trkpt lat="44.95562" lon="5.47707">
        <ele>1377.2</ele>
        <time>2020-06-27T13:29:44.171Z</time>
      </trkpt>
      <trkpt lat="44.95538" lon="5.47689">
        <ele>1378.8</ele>
        <time>2020-06-27T13:29:44.951Z</time>
      </trkpt>
      <trkpt lat="44.9552" lon="5.47666">
        <ele>1380.5</ele>
        <time>2020-06-27T13:29:45.753Z</time>
      </trkpt>
      <trkpt lat="44.95511" lon="5.47658">
        <ele>1381.2</ele>
        <time>2020-06-27T13:29:46.565Z</time>
      </trkpt>
      <trkpt lat="44.95493" lon="5.4765">
        <ele>1382.5</ele>
        <time>2020-06-27T13:29:47.395Z</time>
      </trkpt>
      <trkpt lat="44.95488" lon="5.47648">
        <ele>1382.8</ele>
        <time>2020-06-27T13:29:48.230Z</time>
      </trkpt>
      <trkpt lat="44.95477" lon="5.47651">
        <ele>1383.4</ele>
        <time>2020-06-27T13:29:49.075Z</time>
      </trkpt>
      <trkpt lat="44.95471" lon="5.47649">
        <ele>1383.7</ele>
        <time>2020-06-27T13:29:49.926Z</time>
      </trkpt>
      <trkpt lat="44.95469" lon="5.4765">
        <ele>1383.7</ele>
        <time>2020-06-27T13:29:50.779Z</time>
      </trkpt>
      <trkpt lat="44.95465" lon="5.47647">
        <ele>1384</ele>
        <time>2020-06-27T13:29:51.636Z</time>
      </trkpt>
      <trkpt lat="44.9546" lon="5.47648">
        <ele>1384</ele>
        <time>2020-06-27T13:29:52.498Z</time>
      </trkpt>
      <trkpt lat="44.9544" lon="5.47648">
        <ele>1384.9</ele>
        <time>2020-06-27T13:29:53.379Z</time>
      </trkpt>
      <trkpt lat="44.95431" lon="5.47645">
        <ele>1385.6</ele>
        <time>2020-06-27T13:29:54.268Z</time>
      </trkpt>
      <trkpt lat="44.95422" lon="5.47647">
        <ele>1385.9</ele>
        <time>2020-06-27T13:29:55.166Z</time>
      </trkpt>
      <trkpt lat="44.95405" lon="5.47648">
        <ele>1386.6</ele>
        <time>2020-06-27T13:29:56.080Z</time>
      </trkpt>
      <trkpt lat="44.95394" lon="5.47652">
        <ele>1386.9</ele>
        <time>2020-06-27T13:29:57.004Z</time>
      </trkpt>
      <trkpt lat="44.95386" lon="5.47651">
        <ele>1387.3</ele>
        <time>2020-06-27T13:29:57.937Z</time>
      </trkpt>
      <trkpt lat="44.95377" lon="5.47653">
        <ele>1387.5</ele>
        <time>2020-06-27T13:29:58.878Z</time>
      </trkpt>
      <trkpt lat="44.95368" lon="5.47651">
        <ele>1387.9</ele>
        <time>2020-06-27T13:29:59.828Z</time>
      </trkpt>
      <trkpt lat="44.95358" lon="5.47647">
        <ele>1388.4</ele>
        <time>2020-06-27T13:30:00.787Z</time>
      </trkpt>
      <trkpt lat="44.95344" lon="5.47645">
        <ele>1388.9</ele>
        <time>2020-06-27T13:30:01.760Z</time>
      </trkpt>
      <trkpt lat="44.95339" lon="5.47647">
        <ele>1388.8</ele>
        <time>2020-06-27T13:30:02.738Z</time>
      </trkpt>
      <trkpt lat="44.95335" lon="5.47646">
        <ele>1389</ele>
        <time>2020-06-27T13:30:03.720Z</time>
      </trkpt>
      <trkpt lat="44.95328" lon="5.4765">
        <ele>1388.9</ele>
        <time>2020-06-27T13:30:04.709Z</time>
      </trkpt>
      <trkpt lat="44.95319" lon="5.47653">
        <ele>1388.9</ele>
        <time>2020-06-27T13:30:05.706Z</time>
      </trkpt>
      <trkpt lat="44.95301" lon="5.47663">
        <ele>1389.1</ele>
        <time>2020-06-27T13:30:06.722Z</time>
      </trkpt>
      <trkpt lat="44.95295" lon="5.47664">
        <ele>1389.3</ele>
        <time>2020-06-27T13:30:07.743Z</time>
      </trkpt>
      <trkpt lat="44.95279" lon="5.47674">
        <ele>1389</ele>
        <time>2020-06-27T13:30:08.780Z</time>
      </trkpt>
      <trkpt lat="44.95272" lon="5.47674">
        <ele>1389</ele>
        <time>2020-06-27T13:30:09.824Z</time>
      </trkpt>
      <trkpt lat="44.95258" lon="5.47681">
        <ele>1388.7</ele>
        <time>2020-06-27T13:30:10.882Z</time>
      </trkpt>
      <trkpt lat="44.95236" lon="5.47699">
        <ele>1390.1</ele>
        <time>2020-06-27T13:30:11.963Z</time>
      </trkpt>
      <trkpt lat="44.95219" lon="5.47703">
        <ele>1391.2</ele>
        <time>2020-06-27T13:30:13.061Z</time>
      </trkpt>
      <trkpt lat="44.95195" lon="5.47699">
        <ele>1391.2</ele>
        <time>2020-06-27T13:30:14.182Z</time>
      </trkpt>
      <trkpt lat="44.95187" lon="5.47696">
        <ele>1390.8</ele>
        <time>2020-06-27T13:30:15.311Z</time>
      </trkpt>
      <trkpt lat="44.95151" lon="5.47665">
        <ele>1388.9</ele>
        <time>2020-06-27T13:30:16.479Z</time>
      </trkpt>
      <trkpt lat="44.95147" lon="5.47661">
        <ele>1388.7</ele>
        <time>2020-06-27T13:30:17.651Z</time>
      </trkpt>
      <trkpt lat="44.95146" lon="5.47654">
        <ele>1388.3</ele>
        <time>2020-06-27T13:30:18.829Z</time>
      </trkpt>
      <trkpt lat="44.95141" lon="5.47646">
        <ele>1388</ele>
        <time>2020-06-27T13:30:20.013Z</time>
      </trkpt>
      <trkpt lat="44.95126" lon="5.47627">
        <ele>1387.2</ele>
        <time>2020-06-27T13:30:21.217Z</time>
      </trkpt>
      <trkpt lat="44.95114" lon="5.47617">
        <ele>1387.3</ele>
        <time>2020-06-27T13:30:22.433Z</time>
      </trkpt>
      <trkpt lat="44.95106" lon="5.47606">
        <ele>1387.5</ele>
        <time>2020-06-27T13:30:23.660Z</time>
      </trkpt>
      <trkpt lat="44.95097" lon="5.47583">
        <ele>1387.9</ele>
        <time>2020-06-27T13:30:24.904Z</time>
      </trkpt>
      <trkpt lat="44.95086" lon="5.47581">
        <ele>1388.1</ele>
        <time>2020-06-27T13:30:26.158Z</time>
      </trkpt>
      <trkpt lat="44.95082" lon="5.47575">
        <ele>1388.2</ele>
        <time>2020-06-27T13:30:27.418Z</time>
      </trkpt>
      <trkpt lat="44.95079" lon="5.47573">
        <ele>1388.3</ele>
        <time>2020-06-27T13:30:28.681Z</time>
      </trkpt>
      <trkpt lat="44.95062" lon="5.47572">
        <ele>1388.4</ele>
        <time>2020-06-27T13:30:29.960Z</time>
      </trkpt>
      <trkpt lat="44.95054" lon="5.47566">
        <ele>1388.6</ele>
        <time>2020-06-27T13:30:31.248Z</time>
      </trkpt>
      <trkpt lat="44.95038" lon="5.47546">
        <ele>1389.6</ele>
        <time>2020-06-27T13:30:32.556Z</time>
      </trkpt>
      <trkpt lat="44.95024" lon="5.47541">
        <ele>1391.2</ele>
        <time>2020-06-27T13:30:33.877Z</time>
      </trkpt>
      <trkpt lat="44.95013" lon="5.47533">
        <ele>1392.9</ele>
        <time>2020-06-27T13:30:35.210Z</time>
      </trkpt>
      <trkpt lat="44.95" lon="5.47517">
        <ele>1395.6</ele>
        <time>2020-06-27T13:30:36.559Z</time>
      </trkpt>
      <trkpt lat="44.94976" lon="5.47511">
        <ele>1398.2</ele>
        <time>2020-06-27T13:30:37.931Z</time>
      </trkpt>
      <trkpt lat="44.94958" lon="5.47513">
        <ele>1399.5</ele>
        <time>2020-06-27T13:30:39.320Z</time>
      </trkpt>
      <trkpt lat="44.94951" lon="5.47512">
        <ele>1400.2</ele>
        <time>2020-06-27T13:30:40.715Z</time>
      </trkpt>
      <trkpt lat="44.94939" lon="5.47517">
        <ele>1400.9</ele>
        <time>2020-06-27T13:30:42.122Z</time>
      </trkpt>
      <trkpt lat="44.94927" lon="5.4753">
        <ele>1400.4</ele>
        <time>2020-06-27T13:30:43.543Z</time>
      </trkpt>
      <trkpt lat="44.94922" lon="5.47533">
        <ele>1400.3</ele>
        <time>2020-06-27T13:30:44.969Z</time>
      </trkpt>
      <trkpt lat="44.94911" lon="5.47555">
        <ele>1398.5</ele>
        <time>2020-06-27T13:30:46.414Z</time>
      </trkpt>
      <trkpt lat="44.94907" lon="5.47559">
        <ele>1398.6</ele>
        <time>2020-06-27T13:30:47.863Z</time>
      </trkpt>
      <trkpt lat="44.94895" lon="5.47563">
        <ele>1399.1</ele>
        <time>2020-06-27T13:30:49.324Z</time>
      </trkpt>
      <trkpt lat="44.94889" lon="5.47567">
        <ele>1399.3</ele>
        <time>2020-06-27T13:30:50.791Z</time>
      </trkpt>
      <trkpt lat="44.9488" lon="5.47577">
        <ele>1399.3</ele>
        <time>2020-06-27T13:30:52.268Z</time>
      </trkpt>
      <trkpt lat="44.94877" lon="5.47585">
        <ele>1399.1</ele>
        <time>2020-06-27T13:30:53.752Z</time>
      </trkpt>
      <trkpt lat="44.94871" lon="5.47595">
        <ele>1399.2</ele>
        <time>2020-06-27T13:30:55.244Z</time>
      </trkpt>
      <trkpt lat="44.94837" lon="5.47621">
        <ele>1400.4</ele>
        <time>2020-06-27T13:30:56.773Z</time>
      </trkpt>
      <trkpt lat="44.94823" lon="5.47626">
        <ele>1400.7</ele>
        <time>2020-06-27T13:30:58.315Z</time>
      </trkpt>
      <trkpt lat="44.94806" lon="5.47636">
        <ele>1401.2</ele>
        <time>2020-06-27T13:30:59.874Z</time>
      </trkpt>
      <trkpt lat="44.94798" lon="5.47635">
        <ele>1401.6</ele>
        <time>2020-06-27T13:31:01.441Z</time>
      </trkpt>
      <trkpt lat="44.94781" lon="5.47622">
        <ele>1404.3</ele>
        <time>2020-06-27T13:31:03.026Z</time>
      </trkpt>
      <trkpt lat="44.94776" lon="5.47621">
        <ele>1405.1</ele>
        <time>2020-06-27T13:31:04.616Z</time>
      </trkpt>
      <trkpt lat="44.94772" lon="5.47622">
        <ele>1405.4</ele>
        <time>2020-06-27T13:31:06.210Z</time>
      </trkpt>
      <trkpt lat="44.94763" lon="5.47633">
        <ele>1405.3</ele>
        <time>2020-06-27T13:31:07.815Z</time>
      </trkpt>
      <trkpt lat="44.94756" lon="5.47637">
        <ele>1406.1</ele>
        <time>2020-06-27T13:31:09.427Z</time>
      </trkpt>
      <trkpt lat="44.94749" lon="5.47636">
        <ele>1406.9</ele>
        <time>2020-06-27T13:31:11.045Z</time>
      </trkpt>
      <trkpt lat="44.94742" lon="5.47631">
        <ele>1408.1</ele>
        <time>2020-06-27T13:31:12.671Z</time>
      </trkpt>
      <trkpt lat="44.94736" lon="5.47631">
        <ele>1408.8</ele>
        <time>2020-06-27T13:31:14.302Z</time>
      </trkpt>
      <trkpt lat="44.94724" lon="5.47626">
        <ele>1410.8</ele>
        <time>2020-06-27T13:31:15.945Z</time>
      </trkpt>
      <trkpt lat="44.9471" lon="5.47613">
        <ele>1413.9</ele>
        <time>2020-06-27T13:31:17.604Z</time>
      </trkpt>
      <trkpt lat="44.9469" lon="5.47602">
        <ele>1417.9</ele>
        <time>2020-06-27T13:31:19.283Z</time>
      </trkpt>
      <trkpt lat="44.94683" lon="5.47595">
        <ele>1419.6</ele>
        <time>2020-06-27T13:31:20.970Z</time>
      </trkpt>
      <trkpt lat="44.94682" lon="5.47592">
        <ele>1420.1</ele>
        <time>2020-06-27T13:31:22.660Z</time>
      </trkpt>
      <trkpt lat="44.94674" lon="5.47592">
        <ele>1421.2</ele>
        <time>2020-06-27T13:31:24.357Z</time>
      </trkpt>
      <trkpt lat="44.94665" lon="5.47588">
        <ele>1423</ele>
        <time>2020-06-27T13:31:26.063Z</time>
      </trkpt>
      <trkpt lat="44.94656" lon="5.47589">
        <ele>1424.2</ele>
        <time>2020-06-27T13:31:27.778Z</time>
      </trkpt>
      <trkpt lat="44.94649" lon="5.47585">
        <ele>1425.7</ele>
        <time>2020-06-27T13:31:29.500Z</time>
      </trkpt>
      <trkpt lat="44.94644" lon="5.47578">
        <ele>1427.2</ele>
        <time>2020-06-27T13:31:31.228Z</time>
      </trkpt>
      <trkpt lat="44.94634" lon="5.47573">
        <ele>1429.2</ele>
        <time>2020-06-27T13:31:32.966Z</time>
      </trkpt>
      <trkpt lat="44.94631" lon="5.47569">
        <ele>1430.1</ele>
        <time>2020-06-27T13:31:34.708Z</time>
      </trkpt>
      <trkpt lat="44.94622" lon="5.47566">
        <ele>1431.7</ele>
        <time>2020-06-27T13:31:36.458Z</time>
      </trkpt>
      <trkpt lat="44.94615" lon="5.4756">
        <ele>1433.2</ele>
        <time>2020-06-27T13:31:38.216Z</time>
      </trkpt>
      <trkpt lat="44.94616" lon="5.47559">
        <ele>1433.2</ele>
        <time>2020-06-27T13:31:39.975Z</time>
      </trkpt>
      <trkpt lat="44.94602" lon="5.47563">
        <ele>1434.6</ele>
        <time>2020-06-27T13:31:41.747Z</time>
      </trkpt>
      <trkpt lat="44.9459" lon="5.47576">
        <ele>1435</ele>
        <time>2020-06-27T13:31:43.533Z</time>
      </trkpt>
      <trkpt lat="44.94579" lon="5.47583">
        <ele>1435.8</ele>
        <time>2020-06-27T13:31:45.331Z</time>
      </trkpt>
      <trkpt lat="44.9457" lon="5.47596">
        <ele>1435.5</ele>
        <time>2020-06-27T13:31:47.141Z</time>
      </trkpt>
      <trkpt lat="44.94563" lon="5.47603">
        <ele>1435.6</ele>
        <time>2020-06-27T13:31:48.959Z</time>
      </trkpt>
      <trkpt lat="44.94557" lon="5.47606">
        <ele>1436</ele>
        <time>2020-06-27T13:31:50.783Z</time>
      </trkpt>
      <trkpt lat="44.94549" lon="5.47615">
        <ele>1436</ele>
        <time>2020-06-27T13:31:52.617Z</time>
      </trkpt>
      <trkpt lat="44.94545" lon="5.47625">
        <ele>1435.4</ele>
        <time>2020-06-27T13:31:54.458Z</time>
      </trkpt>
      <trkpt lat="44.94536" lon="5.47642">
        <ele>1434.6</ele>
        <time>2020-06-27T13:31:56.314Z</time>
      </trkpt>
      <trkpt lat="44.94528" lon="5.4765">
        <ele>1434.7</ele>
        <time>2020-06-27T13:31:58.179Z</time>
      </trkpt>
      <trkpt lat="44.94515" lon="5.47652">
        <ele>1436</ele>
        <time>2020-06-27T13:32:00.056Z</time>
      </trkpt>
      <trkpt lat="44.94509" lon="5.4765">
        <ele>1436.8</ele>
        <time>2020-06-27T13:32:01.939Z</time>
      </trkpt>
      <trkpt lat="44.945" lon="5.47646">
        <ele>1438.2</ele>
        <time>2020-06-27T13:32:03.831Z</time>
      </trkpt>
      <trkpt lat="44.94492" lon="5.47639">
        <ele>1439.7</ele>
        <time>2020-06-27T13:32:05.732Z</time>
      </trkpt>
      <trkpt lat="44.94482" lon="5.47635">
        <ele>1441.2</ele>
        <time>2020-06-27T13:32:07.643Z</time>
      </trkpt>
      <trkpt lat="44.94474" lon="5.47639">
        <ele>1441.6</ele>
        <time>2020-06-27T13:32:09.561Z</time>
      </trkpt>
      <trkpt lat="44.94466" lon="5.47641">
        <ele>1442.3</ele>
        <time>2020-06-27T13:32:11.487Z</time>
      </trkpt>
      <trkpt lat="44.94463" lon="5.47637">
        <ele>1443</ele>
        <time>2020-06-27T13:32:13.417Z</time>
      </trkpt>
      <trkpt lat="44.94454" lon="5.47632">
        <ele>1444.3</ele>
        <time>2020-06-27T13:32:15.356Z</time>
      </trkpt>
      <trkpt lat="44.94451" lon="5.47626">
        <ele>1445.3</ele>
        <time>2020-06-27T13:32:17.300Z</time>
      </trkpt>
      <trkpt lat="44.94444" lon="5.47622">
        <ele>1446.3</ele>
        <time>2020-06-27T13:32:19.250Z</time>
      </trkpt>
      <trkpt lat="44.94438" lon="5.47612">
        <ele>1447.8</ele>
        <time>2020-06-27T13:32:21.209Z</time>
      </trkpt>
      <trkpt lat="44.94431" lon="5.47605">
        <ele>1449.2</ele>
        <time>2020-06-27T13:32:23.176Z</time>
      </trkpt>
      <trkpt lat="44.94425" lon="5.47601">
        <ele>1450.2</ele>
        <time>2020-06-27T13:32:25.150Z</time>
      </trkpt>
      <trkpt lat="44.94417" lon="5.47592">
        <ele>1451.8</ele>
        <time>2020-06-27T13:32:27.134Z</time>
      </trkpt>
      <trkpt lat="44.9441" lon="5.47589">
        <ele>1452.6</ele>
        <time>2020-06-27T13:32:29.125Z</time>
      </trkpt>
      <trkpt lat="44.94394" lon="5.47594">
        <ele>1452.9</ele>
        <time>2020-06-27T13:32:31.131Z</time>
      </trkpt>
      <trkpt lat="44.94376" lon="5.47597">
        <ele>1453.6</ele>
        <time>2020-06-27T13:32:33.154Z</time>
      </trkpt>
      <trkpt lat="44.94356" lon="5.47609">
        <ele>1453.7</ele>
        <time>2020-06-27T13:32:35.197Z</time>
      </trkpt>
      <trkpt lat="44.94353" lon="5.47618">
        <ele>1452.5</ele>
        <time>2020-06-27T13:32:37.247Z</time>
      </trkpt>
      <trkpt lat="44.94341" lon="5.47639">
        <ele>1450.2</ele>
        <time>2020-06-27T13:32:39.315Z</time>
      </trkpt>
      <trkpt lat="44.94327" lon="5.47657">
        <ele>1449.5</ele>
        <time>2020-06-27T13:32:41.400Z</time>
      </trkpt>
      <trkpt lat="44.94321" lon="5.47659">
        <ele>1449.7</ele>
        <time>2020-06-27T13:32:43.492Z</time>
      </trkpt>
      <trkpt lat="44.94312" lon="5.47658">
        <ele>1450.3</ele>
        <time>2020-06-27T13:32:45.592Z</time>
      </trkpt>
      <trkpt lat="44.94295" lon="5.47651">
        <ele>1451.8</ele>
        <time>2020-06-27T13:32:47.708Z</time>
      </trkpt>
      <trkpt lat="44.94288" lon="5.47652">
        <ele>1452.1</ele>
        <time>2020-06-27T13:32:49.831Z</time>
      </trkpt>
      <trkpt lat="44.94273" lon="5.47648">
        <ele>1452.5</ele>
        <time>2020-06-27T13:32:51.968Z</time>
      </trkpt>
      <trkpt lat="44.94261" lon="5.47643">
        <ele>1452.9</ele>
        <time>2020-06-27T13:32:54.117Z</time>
      </trkpt>
      <trkpt lat="44.94251" lon="5.47634">
        <ele>1453.4</ele>
        <time>2020-06-27T13:32:56.277Z</time>
      </trkpt>
      <trkpt lat="44.94239" lon="5.47631">
        <ele>1454</ele>
        <time>2020-06-27T13:32:58.449Z</time>
      </trkpt>
      <trkpt lat="44.9422" lon="5.47621">
        <ele>1456</ele>
        <time>2020-06-27T13:33:00.640Z</time>
      </trkpt>
      <trkpt lat="44.94208" lon="5.4761">
        <ele>1458.1</ele>
        <time>2020-06-27T13:33:02.844Z</time>
      </trkpt>
      <trkpt lat="44.94204" lon="5.47608">
        <ele>1458.7</ele>
        <time>2020-06-27T13:33:05.052Z</time>
      </trkpt>
      <trkpt lat="44.94196" lon="5.47609">
        <ele>1459</ele>
        <time>2020-06-27T13:33:07.267Z</time>
      </trkpt>
      <trkpt lat="44.94184" lon="5.47604">
        <ele>1460.6</ele>
        <time>2020-06-27T13:33:09.494Z</time>
      </trkpt>
      <trkpt lat="44.94179" lon="5.47606">
        <ele>1460.6</ele>
        <time>2020-06-27T13:33:11.726Z</time>
      </trkpt>
      <trkpt lat="44.94165" lon="5.47607">
        <ele>1461.6</ele>
        <time>2020-06-27T13:33:13.971Z</time>
      </trkpt>
      <trkpt lat="44.9416" lon="5.4761">
        <ele>1461.6</ele>
        <time>2020-06-27T13:33:16.222Z</time>
      </trkpt>
      <trkpt lat="44.94151" lon="5.47613">
        <ele>1461.8</ele>
        <time>2020-06-27T13:33:18.481Z</time>
      </trkpt>
      <trkpt lat="44.94137" lon="5.47612">
        <ele>1463.2</ele>
        <time>2020-06-27T13:33:20.753Z</time>
      </trkpt>
      <trkpt lat="44.94131" lon="5.47616">
        <ele>1463.1</ele>
        <time>2020-06-27T13:33:23.032Z</time>
      </trkpt>
      <trkpt lat="44.94126" lon="5.47624">
        <ele>1462.2</ele>
        <time>2020-06-27T13:33:25.318Z</time>
      </trkpt>
      <trkpt lat="44.94114" lon="5.47635">
        <ele>1461.4</ele>
        <time>2020-06-27T13:33:27.617Z</time>
      </trkpt>
      <trkpt lat="44.9411" lon="5.47636">
        <ele>1461.6</ele>
        <time>2020-06-27T13:33:29.920Z</time>
      </trkpt>
      <trkpt lat="44.94104" lon="5.47634">
        <ele>1461.7</ele>
        <time>2020-06-27T13:33:32.229Z</time>
      </trkpt>
      <trkpt lat="44.94097" lon="5.47636">
        <ele>1462</ele>
        <time>2020-06-27T13:33:34.544Z</time>
      </trkpt>
      <trkpt lat="44.94089" lon="5.47641">
        <ele>1462.5</ele>
        <time>2020-06-27T13:33:36.868Z</time>
      </trkpt>
      <trkpt lat="44.94082" lon="5.47641">
        <ele>1462.7</ele>
        <time>2020-06-27T13:33:39.198Z</time>
      </trkpt>
      <trkpt lat="44.94074" lon="5.47644">
        <ele>1463.1</ele>
        <time>2020-06-27T13:33:41.536Z</time>
      </trkpt>
      <trkpt lat="44.94064" lon="5.47643">
        <ele>1463.4</ele>
        <time>2020-06-27T13:33:43.883Z</time>
      </trkpt>
      <trkpt lat="44.9406" lon="5.47646">
        <ele>1463.6</ele>
        <time>2020-06-27T13:33:46.234Z</time>
      </trkpt>
      <trkpt lat="44.94053" lon="5.47652">
        <ele>1463.4</ele>
        <time>2020-06-27T13:33:48.593Z</time>
      </trkpt>
      <trkpt lat="44.94038" lon="5.47661">
        <ele>1462.1</ele>
        <time>2020-06-27T13:33:50.967Z</time>
      </trkpt>
      <trkpt lat="44.94017" lon="5.47665">
        <ele>1462.5</ele>
        <time>2020-06-27T13:33:53.362Z</time>
      </trkpt>
      <trkpt lat="44.94007" lon="5.47675">
        <ele>1462.2</ele>
        <time>2020-06-27T13:33:55.768Z</time>
      </trkpt>
      <trkpt lat="44.93991" lon="5.47695">
        <ele>1460.6</ele>
        <time>2020-06-27T13:33:58.195Z</time>
      </trkpt>
      <trkpt lat="44.9397" lon="5.47695">
        <ele>1460.9</ele>
        <time>2020-06-27T13:34:00.641Z</time>
      </trkpt>
      <trkpt lat="44.93954" lon="5.47689">
        <ele>1462</ele>
        <time>2020-06-27T13:34:03.103Z</time>
      </trkpt>
      <trkpt lat="44.93947" lon="5.47691">
        <ele>1462.5</ele>
        <time>2020-06-27T13:34:05.571Z</time>
      </trkpt>
      <trkpt lat="44.93944" lon="5.4769">
        <ele>1463</ele>
        <time>2020-06-27T13:34:08.042Z</time>
      </trkpt>
      <trkpt lat="44.93932" lon="5.47692">
        <ele>1464.1</ele>
        <time>2020-06-27T13:34:10.524Z</time>
      </trkpt>
      <trkpt lat="44.93927" lon="5.47697">
        <ele>1464.4</ele>
        <time>2020-06-27T13:34:13.012Z</time>
      </trkpt>
      <trkpt lat="44.93919" lon="5.47702">
        <ele>1465.1</ele>
        <time>2020-06-27T13:34:15.509Z</time>
      </trkpt>
      <trkpt lat="44.93907" lon="5.47702">
        <ele>1466.7</ele>
        <time>2020-06-27T13:34:18.017Z</time>
      </trkpt>
      <trkpt lat="44.93881" lon="5.47716">
        <ele>1469.1</ele>
        <time>2020-06-27T13:34:20.551Z</time>
      </trkpt>
      <trkpt lat="44.93866" lon="5.47728">
        <ele>1470.9</ele>
        <time>2020-06-27T13:34:23.100Z</time>
      </trkpt>
      <trkpt lat="44.93859" lon="5.4773">
        <ele>1471.6</ele>
        <time>2020-06-27T13:34:25.657Z</time>
      </trkpt>
      <trkpt lat="44.93852" lon="5.47735">
        <ele>1472.3</ele>
        <time>2020-06-27T13:34:28.221Z</time>
      </trkpt>
      <trkpt lat="44.93844" lon="5.47743">
        <ele>1473.2</ele>
        <time>2020-06-27T13:34:30.794Z</time>
      </trkpt>
      <trkpt lat="44.93837" lon="5.47747">
        <ele>1473.9</ele>
        <time>2020-06-27T13:34:33.374Z</time>
      </trkpt>
      <trkpt lat="44.93824" lon="5.47747">
        <ele>1475.2</ele>
        <time>2020-06-27T13:34:35.966Z</time>
      </trkpt>
      <trkpt lat="44.93813" lon="5.47744">
        <ele>1476.1</ele>
        <time>2020-06-27T13:34:38.569Z</time>
      </trkpt>
      <trkpt lat="44.93804" lon="5.4775">
        <ele>1476.9</ele>
        <time>2020-06-27T13:34:41.181Z</time>
      </trkpt>
      <trkpt lat="44.93792" lon="5.4775">
        <ele>1477.9</ele>
        <time>2020-06-27T13:34:43.805Z</time>
      </trkpt>
      <trkpt lat="44.93778" lon="5.47743">
        <ele>1480.4</ele>
        <time>2020-06-27T13:34:46.443Z</time>
      </trkpt>
      <trkpt lat="44.93771" lon="5.47742">
        <ele>1481.8</ele>
        <time>2020-06-27T13:34:49.088Z</time>
      </trkpt>
      <trkpt lat="44.93754" lon="5.4773">
        <ele>1485</ele>
        <time>2020-06-27T13:34:51.750Z</time>
      </trkpt>
      <trkpt lat="44.93749" lon="5.47731">
        <ele>1486</ele>
        <time>2020-06-27T13:34:54.417Z</time>
      </trkpt>
      <trkpt lat="44.93744" lon="5.47731">
        <ele>1487</ele>
        <time>2020-06-27T13:34:57.089Z</time>
      </trkpt>
      <trkpt lat="44.93733" lon="5.47737">
        <ele>1489.1</ele>
        <time>2020-06-27T13:34:59.772Z</time>
      </trkpt>
      <trkpt lat="44.93724" lon="5.47739">
        <ele>1490.9</ele>
        <time>2020-06-27T13:35:02.464Z</time>
      </trkpt>
      <trkpt lat="44.93719" lon="5.47742">
        <ele>1491.9</ele>
        <time>2020-06-27T13:35:05.160Z</time>
      </trkpt>
      <trkpt lat="44.9371" lon="5.47741">
        <ele>1493.7</ele>
        <time>2020-06-27T13:35:07.865Z</time>
      </trkpt>
      <trkpt lat="44.93702" lon="5.47744">
        <ele>1495.4</ele>
        <time>2020-06-27T13:35:10.577Z</time>
      </trkpt>
      <trkpt lat="44.93694" lon="5.47745">
        <ele>1497.1</ele>
        <time>2020-06-27T13:35:13.298Z</time>
      </trkpt>
      <trkpt lat="44.93683" lon="5.47751">
        <ele>1499.4</ele>
        <time>2020-06-27T13:35:16.030Z</time>
      </trkpt>
      <trkpt lat="44.93677" lon="5.47751">
        <ele>1500.6</ele>
        <time>2020-06-27T13:35:18.767Z</time>
      </trkpt>
      <trkpt lat="44.93668" lon="5.47748">
        <ele>1502.4</ele>
        <time>2020-06-27T13:35:21.513Z</time>
      </trkpt>
      <trkpt lat="44.93657" lon="5.47757">
        <ele>1504.7</ele>
        <time>2020-06-27T13:35:24.270Z</time>
      </trkpt>
      <trkpt lat="44.93653" lon="5.47758">
        <ele>1505.6</ele>
        <time>2020-06-27T13:35:27.031Z</time>
      </trkpt>
      <trkpt lat="44.93652" lon="5.4776">
        <ele>1505.8</ele>
        <time>2020-06-27T13:35:29.794Z</time>
      </trkpt>
      <trkpt lat="44.93646" lon="5.47772">
        <ele>1507.2</ele>
        <time>2020-06-27T13:35:32.567Z</time>
      </trkpt>
      <trkpt lat="44.93644" lon="5.47783">
        <ele>1507.7</ele>
        <time>2020-06-27T13:35:35.348Z</time>
      </trkpt>
      <trkpt lat="44.93629" lon="5.47805">
        <ele>1511.3</ele>
        <time>2020-06-27T13:35:38.149Z</time>
      </trkpt>
      <trkpt lat="44.93626" lon="5.47813">
        <ele>1511.8</ele>
        <time>2020-06-27T13:35:40.956Z</time>
      </trkpt>
      <trkpt lat="44.93616" lon="5.47826">
        <ele>1513.3</ele>
        <time>2020-06-27T13:35:43.776Z</time>
      </trkpt>
      <trkpt lat="44.93612" lon="5.47844">
        <ele>1514</ele>
        <time>2020-06-27T13:35:46.608Z</time>
      </trkpt>
      <trkpt lat="44.9361" lon="5.47847">
        <ele>1514.2</ele>
        <time>2020-06-27T13:35:49.443Z</time>
      </trkpt>
      <trkpt lat="44.93605" lon="5.4785">
        <ele>1514.9</ele>
        <time>2020-06-27T13:35:52.284Z</time>
      </trkpt>
      <trkpt lat="44.93592" lon="5.47881">
        <ele>1512.9</ele>
        <time>2020-06-27T13:35:55.149Z</time>
      </trkpt>
      <trkpt lat="44.93582" lon="5.47896">
        <ele>1513.3</ele>
        <time>2020-06-27T13:35:58.028Z</time>
      </trkpt>
      <trkpt lat="44.93576" lon="5.47901">
        <ele>1513.5</ele>
        <time>2020-06-27T13:36:00.913Z</time>
      </trkpt>
      <trkpt lat="44.93574" lon="5.47906">
        <ele>1513.8</ele>
        <time>2020-06-27T13:36:03.802Z</time>
      </trkpt>
      <trkpt lat="44.93575" lon="5.47905">
        <ele>1513.7</ele>
        <time>2020-06-27T13:36:06.692Z</time>
      </trkpt>
      <trkpt lat="44.93573" lon="5.47906">
        <ele>1513.8</ele>
        <time>2020-06-27T13:36:09.584Z</time>
      </trkpt>
      <trkpt lat="44.9357" lon="5.47906">
        <ele>1513.7</ele>
        <time>2020-06-27T13:36:12.478Z</time>
      </trkpt>
      <trkpt lat="44.93568" lon="5.47908">
        <ele>1513.8</ele>
        <time>2020-06-27T13:36:15.375Z</time>
      </trkpt>
      <trkpt lat="44.93569" lon="5.47908">
        <ele>1513.8</ele>
        <time>2020-06-27T13:36:18.273Z</time>
      </trkpt>
      <trkpt lat="44.93565" lon="5.47919">
        <ele>1513.5</ele>
        <time>2020-06-27T13:36:21.179Z</time>
      </trkpt>
      <trkpt lat="44.9356" lon="5.47934">
        <ele>1512.6</ele>
        <time>2020-06-27T13:36:24.096Z</time>
      </trkpt>
      <trkpt lat="44.93556" lon="5.47942">
        <ele>1512.1</ele>
        <time>2020-06-27T13:36:27.020Z</time>
      </trkpt>
      <trkpt lat="44.9355" lon="5.47948">
        <ele>1511.3</ele>
        <time>2020-06-27T13:36:29.950Z</time>
      </trkpt>
      <trkpt lat="44.93544" lon="5.47949">
        <ele>1510.7</ele>
        <time>2020-06-27T13:36:32.887Z</time>
      </trkpt>
      <trkpt lat="44.93533" lon="5.47943">
        <ele>1510.4</ele>
        <time>2020-06-27T13:36:35.835Z</time>
      </trkpt>
      <trkpt lat="44.93529" lon="5.47938">
        <ele>1510.4</ele>
        <time>2020-06-27T13:36:38.788Z</time>
      </trkpt>
      <trkpt lat="44.93512" lon="5.47925">
        <ele>1510.3</ele>
        <time>2020-06-27T13:36:41.758Z</time>
      </trkpt>
      <trkpt lat="44.93509" lon="5.47921">
        <ele>1510.3</ele>
        <time>2020-06-27T13:36:44.733Z</time>
      </trkpt>
      <trkpt lat="44.93505" lon="5.47912">
        <ele>1510.4</ele>
        <time>2020-06-27T13:36:47.715Z</time>
      </trkpt>
      <trkpt lat="44.93486" lon="5.47904">
        <ele>1510.2</ele>
        <time>2020-06-27T13:36:50.715Z</time>
      </trkpt>
      <trkpt lat="44.93471" lon="5.47914">
        <ele>1509.6</ele>
        <time>2020-06-27T13:36:53.731Z</time>
      </trkpt>
      <trkpt lat="44.93455" lon="5.4792">
        <ele>1508.9</ele>
        <time>2020-06-27T13:36:56.762Z</time>
      </trkpt>
      <trkpt lat="44.93448" lon="5.4792">
        <ele>1508.3</ele>
        <time>2020-06-27T13:36:59.800Z</time>
      </trkpt>
      <trkpt lat="44.93442" lon="5.47923">
        <ele>1507.8</ele>
        <time>2020-06-27T13:37:02.844Z</time>
      </trkpt>
      <trkpt lat="44.93439" lon="5.47935">
        <ele>1507.2</ele>
        <time>2020-06-27T13:37:05.896Z</time>
      </trkpt>
      <trkpt lat="44.93444" lon="5.4795">
        <ele>1507.3</ele>
        <time>2020-06-27T13:37:08.959Z</time>
      </trkpt>
      <trkpt lat="44.93443" lon="5.47965">
        <ele>1508.5</ele>
        <time>2020-06-27T13:37:12.033Z</time>
      </trkpt>
      <trkpt lat="44.93448" lon="5.47977">
        <ele>1509.1</ele>
        <time>2020-06-27T13:37:15.116Z</time>
      </trkpt>
      <trkpt lat="44.93449" lon="5.47993">
        <ele>1510</ele>
        <time>2020-06-27T13:37:18.210Z</time>
      </trkpt>
      <trkpt lat="44.93444" lon="5.48004">
        <ele>1510.9</ele>
        <time>2020-06-27T13:37:21.312Z</time>
      </trkpt>
      <trkpt lat="44.93438" lon="5.48008">
        <ele>1511.4</ele>
        <time>2020-06-27T13:37:24.421Z</time>
      </trkpt>
      <trkpt lat="44.93433" lon="5.48008">
        <ele>1511.7</ele>
        <time>2020-06-27T13:37:27.534Z</time>
      </trkpt>
      <trkpt lat="44.93422" lon="5.48007">
        <ele>1512.1</ele>
        <time>2020-06-27T13:37:30.658Z</time>
      </trkpt>
      <trkpt lat="44.93413" lon="5.48003">
        <ele>1512.3</ele>
        <time>2020-06-27T13:37:33.791Z</time>
      </trkpt>
      <trkpt lat="44.93398" lon="5.47986">
        <ele>1512</ele>
        <time>2020-06-27T13:37:36.942Z</time>
      </trkpt>
      <trkpt lat="44.93389" lon="5.47982">
        <ele>1512.3</ele>
        <time>2020-06-27T13:37:40.102Z</time>
      </trkpt>
      <trkpt lat="44.93386" lon="5.47979">
        <ele>1512.3</ele>
        <time>2020-06-27T13:37:43.266Z</time>
      </trkpt>
      <trkpt lat="44.93382" lon="5.4796">
        <ele>1510.9</ele>
        <time>2020-06-27T13:37:46.443Z</time>
      </trkpt>
      <trkpt lat="44.93376" lon="5.47947">
        <ele>1509.8</ele>
        <time>2020-06-27T13:37:49.631Z</time>
      </trkpt>
      <trkpt lat="44.93374" lon="5.47932">
        <ele>1508.3</ele>
        <time>2020-06-27T13:37:52.828Z</time>
      </trkpt>
      <trkpt lat="44.93365" lon="5.47914">
        <ele>1506.7</ele>
        <time>2020-06-27T13:37:56.040Z</time>
      </trkpt>
      <trkpt lat="44.93356" lon="5.47906">
        <ele>1506.1</ele>
        <time>2020-06-27T13:37:59.262Z</time>
      </trkpt>
      <trkpt lat="44.93349" lon="5.47895">
        <ele>1505.2</ele>
        <time>2020-06-27T13:38:02.494Z</time>
      </trkpt>
      <trkpt lat="44.93339" lon="5.47887">
        <ele>1504.7</ele>
        <time>2020-06-27T13:38:05.737Z</time>
      </trkpt>
      <trkpt lat="44.93332" lon="5.47874">
        <ele>1503.8</ele>
        <time>2020-06-27T13:38:08.990Z</time>
      </trkpt>
      <trkpt lat="44.93331" lon="5.47863">
        <ele>1502.9</ele>
        <time>2020-06-27T13:38:12.251Z</time>
      </trkpt>
      <trkpt lat="44.93323" lon="5.47855">
        <ele>1502.5</ele>
        <time>2020-06-27T13:38:15.521Z</time>
      </trkpt>
      <trkpt lat="44.93312" lon="5.47832">
        <ele>1500.9</ele>
        <time>2020-06-27T13:38:18.809Z</time>
      </trkpt>
      <trkpt lat="44.93295" lon="5.47833">
        <ele>1501.6</ele>
        <time>2020-06-27T13:38:22.113Z</time>
      </trkpt>
      <trkpt lat="44.93282" lon="5.47844">
        <ele>1504.6</ele>
        <time>2020-06-27T13:38:25.431Z</time>
      </trkpt>
      <trkpt lat="44.93266" lon="5.47844">
        <ele>1508</ele>
        <time>2020-06-27T13:38:28.764Z</time>
      </trkpt>
      <trkpt lat="44.93265" lon="5.47841">
        <ele>1508</ele>
        <time>2020-06-27T13:38:32.099Z</time>
      </trkpt>
      <trkpt lat="44.93255" lon="5.47839">
        <ele>1510</ele>
        <time>2020-06-27T13:38:35.443Z</time>
      </trkpt>
      <trkpt lat="44.93249" lon="5.47836">
        <ele>1511</ele>
        <time>2020-06-27T13:38:38.793Z</time>
      </trkpt>
      <trkpt lat="44.93246" lon="5.4783">
        <ele>1511.2</ele>
        <time>2020-06-27T13:38:42.149Z</time>
      </trkpt>
      <trkpt lat="44.93238" lon="5.47825">
        <ele>1512.5</ele>
        <time>2020-06-27T13:38:45.513Z</time>
      </trkpt>
      <trkpt lat="44.93224" lon="5.47811">
        <ele>1514.3</ele>
        <time>2020-06-27T13:38:48.893Z</time>
      </trkpt>
      <trkpt lat="44.93218" lon="5.47808">
        <ele>1515.4</ele>
        <time>2020-06-27T13:38:52.279Z</time>
      </trkpt>
      <trkpt lat="44.9321" lon="5.4779">
        <ele>1515.8</ele>
        <time>2020-06-27T13:38:55.679Z</time>
      </trkpt>
      <trkpt lat="44.93205" lon="5.47768">
        <ele>1515.2</ele>
        <time>2020-06-27T13:38:59.094Z</time>
      </trkpt>
      <trkpt lat="44.93193" lon="5.47753">
        <ele>1514.5</ele>
        <time>2020-06-27T13:39:02.525Z</time>
      </trkpt>
      <trkpt lat="44.93188" lon="5.4775">
        <ele>1514.5</ele>
        <time>2020-06-27T13:39:05.961Z</time>
      </trkpt>
      <trkpt lat="44.93185" lon="5.47739">
        <ele>1513.9</ele>
        <time>2020-06-27T13:39:09.405Z</time>
      </trkpt>
      <trkpt lat="44.93182" lon="5.47736">
        <ele>1513.8</ele>
        <time>2020-06-27T13:39:12.852Z</time>
      </trkpt>
      <trkpt lat="44.93178" lon="5.47727">
        <ele>1513.3</ele>
        <time>2020-06-27T13:39:16.306Z</time>
      </trkpt>
      <trkpt lat="44.93177" lon="5.47714">
        <ele>1512.5</ele>
        <time>2020-06-27T13:39:19.769Z</time>
      </trkpt>
      <trkpt lat="44.93167" lon="5.47693">
        <ele>1510.4</ele>
        <time>2020-06-27T13:39:23.248Z</time>
      </trkpt>
      <trkpt lat="44.93165" lon="5.47673">
        <ele>1508.4</ele>
        <time>2020-06-27T13:39:26.741Z</time>
      </trkpt>
      <trkpt lat="44.93166" lon="5.47664">
        <ele>1507.9</ele>
        <time>2020-06-27T13:39:30.240Z</time>
      </trkpt>
      <trkpt lat="44.93163" lon="5.47656">
        <ele>1507.3</ele>
        <time>2020-06-27T13:39:33.745Z</time>
      </trkpt>
      <trkpt lat="44.93165" lon="5.47648">
        <ele>1506.9</ele>
        <time>2020-06-27T13:39:37.256Z</time>
      </trkpt>
      <trkpt lat="44.93162" lon="5.47641">
        <ele>1506.4</ele>
        <time>2020-06-27T13:39:40.772Z</time>
      </trkpt>
      <trkpt lat="44.93152" lon="5.47633">
        <ele>1505.7</ele>
        <time>2020-06-27T13:39:44.298Z</time>
      </trkpt>
      <trkpt lat="44.93149" lon="5.47633">
        <ele>1505.6</ele>
        <time>2020-06-27T13:39:47.828Z</time>
      </trkpt>
      <trkpt lat="44.93146" lon="5.47637">
        <ele>1505.8</ele>
        <time>2020-06-27T13:39:51.361Z</time>
      </trkpt>
      <trkpt lat="44.93147" lon="5.47642">
        <ele>1506.1</ele>
        <time>2020-06-27T13:39:54.898Z</time>
      </trkpt>
      <trkpt lat="44.93146" lon="5.47648">
        <ele>1506.4</ele>
        <time>2020-06-27T13:39:58.439Z</time>
      </trkpt>
      <trkpt lat="44.9314" lon="5.47649">
        <ele>1506.3</ele>
        <time>2020-06-27T13:40:01.986Z</time>
      </trkpt>
      <trkpt lat="44.93137" lon="5.47648">
        <ele>1506.3</ele>
        <time>2020-06-27T13:40:05.535Z</time>
      </trkpt>
      <trkpt lat="44.93135" lon="5.47645">
        <ele>1506</ele>
        <time>2020-06-27T13:40:09.087Z</time>
      </trkpt>
      <trkpt lat="44.93122" lon="5.47636">
        <ele>1505.1</ele>
        <time>2020-06-27T13:40:12.653Z</time>
      </trkpt>
      <trkpt lat="44.93115" lon="5.47634">
        <ele>1504.3</ele>
        <time>2020-06-27T13:40:16.225Z</time>
      </trkpt>
      <trkpt lat="44.93107" lon="5.47623">
        <ele>1503.6</ele>
        <time>2020-06-27T13:40:19.808Z</time>
      </trkpt>
      <trkpt lat="44.93104" lon="5.47622">
        <ele>1503.4</ele>
        <time>2020-06-27T13:40:23.393Z</time>
      </trkpt>
      <trkpt lat="44.93095" lon="5.47612">
        <ele>1502.7</ele>
        <time>2020-06-27T13:40:26.989Z</time>
      </trkpt>
      <trkpt lat="44.93091" lon="5.4761">
        <ele>1502.4</ele>
        <time>2020-06-27T13:40:30.590Z</time>
      </trkpt>
      <trkpt lat="44.93081" lon="5.47597">
        <ele>1501.7</ele>
        <time>2020-06-27T13:40:34.203Z</time>
      </trkpt>
      <trkpt lat="44.93076" lon="5.47595">
        <ele>1501.3</ele>
        <time>2020-06-27T13:40:37.822Z</time>
      </trkpt>
      <trkpt lat="44.9307" lon="5.47589">
        <ele>1500.9</ele>
        <time>2020-06-27T13:40:41.447Z</time>
      </trkpt>
      <trkpt lat="44.93068" lon="5.47583">
        <ele>1500.8</ele>
        <time>2020-06-27T13:40:45.077Z</time>
      </trkpt>
      <trkpt lat="44.93068" lon="5.47578">
        <ele>1501</ele>
        <time>2020-06-27T13:40:48.710Z</time>
      </trkpt>
      <trkpt lat="44.93075" lon="5.47553">
        <ele>1500.7</ele>
        <time>2020-06-27T13:40:52.361Z</time>
      </trkpt>
      <trkpt lat="44.93065" lon="5.47536">
        <ele>1499.4</ele>
        <time>2020-06-27T13:40:56.026Z</time>
      </trkpt>
      <trkpt lat="44.93054" lon="5.47529">
        <ele>1498.4</ele>
        <time>2020-06-27T13:40:59.702Z</time>
      </trkpt>
      <trkpt lat="44.93051" lon="5.47525">
        <ele>1498</ele>
        <time>2020-06-27T13:41:03.383Z</time>
      </trkpt>
      <trkpt lat="44.93051" lon="5.47499">
        <ele>1496.5</ele>
        <time>2020-06-27T13:41:07.081Z</time>
      </trkpt>
      <trkpt lat="44.93056" lon="5.47492">
        <ele>1496.3</ele>
        <time>2020-06-27T13:41:10.786Z</time>
      </trkpt>
      <trkpt lat="44.9306" lon="5.47477">
        <ele>1495.9</ele>
        <time>2020-06-27T13:41:14.501Z</time>
      </trkpt>
      <trkpt lat="44.93057" lon="5.47477">
        <ele>1495.6</ele>
        <time>2020-06-27T13:41:18.218Z</time>
      </trkpt>
      <trkpt lat="44.93052" lon="5.47485">
        <ele>1495.7</ele>
        <time>2020-06-27T13:41:21.942Z</time>
      </trkpt>
      <trkpt lat="44.93037" lon="5.47485">
        <ele>1494.6</ele>
        <time>2020-06-27T13:41:25.680Z</time>
      </trkpt>
      <trkpt lat="44.93026" lon="5.47488">
        <ele>1493.2</ele>
        <time>2020-06-27T13:41:29.429Z</time>
      </trkpt>
      <trkpt lat="44.93021" lon="5.47486">
        <ele>1492.4</ele>
        <time>2020-06-27T13:41:33.183Z</time>
      </trkpt>
      <trkpt lat="44.93019" lon="5.47486">
        <ele>1492.1</ele>
        <time>2020-06-27T13:41:36.939Z</time>
      </trkpt>
      <trkpt lat="44.93011" lon="5.47482">
        <ele>1490.7</ele>
        <time>2020-06-27T13:41:40.703Z</time>
      </trkpt>
      <trkpt lat="44.92997" lon="5.47486">
        <ele>1488.9</ele>
        <time>2020-06-27T13:41:44.480Z</time>
      </trkpt>
      <trkpt lat="44.92989" lon="5.47484">
        <ele>1487.6</ele>
        <time>2020-06-27T13:41:48.265Z</time>
      </trkpt>
      <trkpt lat="44.92985" lon="5.47485">
        <ele>1487.1</ele>
        <time>2020-06-27T13:41:52.054Z</time>
      </trkpt>
      <trkpt lat="44.92979" lon="5.47481">
        <ele>1486</ele>
        <time>2020-06-27T13:41:55.849Z</time>
      </trkpt>
      <trkpt lat="44.92968" lon="5.47479">
        <ele>1484.3</ele>
        <time>2020-06-27T13:41:59.654Z</time>
      </trkpt>
      <trkpt lat="44.92959" lon="5.47488">
        <ele>1483.8</ele>
        <time>2020-06-27T13:42:03.469Z</time>
      </trkpt>
      <trkpt lat="44.92951" lon="5.47483">
        <ele>1482.2</ele>
        <time>2020-06-27T13:42:07.293Z</time>
      </trkpt>
      <trkpt lat="44.92944" lon="5.47485">
        <ele>1481.1</ele>
        <time>2020-06-27T13:42:11.124Z</time>
      </trkpt>
      <trkpt lat="44.92927" lon="5.47513">
        <ele>1480.3</ele>
        <time>2020-06-27T13:42:14.979Z</time>
      </trkpt>
      <trkpt lat="44.92918" lon="5.47518">
        <ele>1479.1</ele>
        <time>2020-06-27T13:42:18.843Z</time>
      </trkpt>
      <trkpt lat="44.92909" lon="5.47521">
        <ele>1477.6</ele>
        <time>2020-06-27T13:42:22.716Z</time>
      </trkpt>
      <trkpt lat="44.92902" lon="5.47528">
        <ele>1476.8</ele>
        <time>2020-06-27T13:42:26.597Z</time>
      </trkpt>
      <trkpt lat="44.929" lon="5.47537">
        <ele>1477</ele>
        <time>2020-06-27T13:42:30.484Z</time>
      </trkpt>
      <trkpt lat="44.92897" lon="5.47542">
        <ele>1476.7</ele>
        <time>2020-06-27T13:42:34.376Z</time>
      </trkpt>
      <trkpt lat="44.92893" lon="5.47554">
        <ele>1476.6</ele>
        <time>2020-06-27T13:42:38.277Z</time>
      </trkpt>
      <trkpt lat="44.92887" lon="5.47556">
        <ele>1475.5</ele>
        <time>2020-06-27T13:42:42.183Z</time>
      </trkpt>
      <trkpt lat="44.92883" lon="5.47563">
        <ele>1475</ele>
        <time>2020-06-27T13:42:46.095Z</time>
      </trkpt>
      <trkpt lat="44.92873" lon="5.47568">
        <ele>1473.6</ele>
        <time>2020-06-27T13:42:50.018Z</time>
      </trkpt>
      <trkpt lat="44.92871" lon="5.4757">
        <ele>1473.4</ele>
        <time>2020-06-27T13:42:53.943Z</time>
      </trkpt>
      <trkpt lat="44.92865" lon="5.47568">
        <ele>1472.6</ele>
        <time>2020-06-27T13:42:57.873Z</time>
      </trkpt>
      <trkpt lat="44.92859" lon="5.4757">
        <ele>1472</ele>
        <time>2020-06-27T13:43:01.810Z</time>
      </trkpt>
      <trkpt lat="44.92854" lon="5.47575">
        <ele>1471.5</ele>
        <time>2020-06-27T13:43:05.752Z</time>
      </trkpt>
      <trkpt lat="44.92852" lon="5.4759">
        <ele>1471.8</ele>
        <time>2020-06-27T13:43:09.704Z</time>
      </trkpt>
      <trkpt lat="44.92844" lon="5.47594">
        <ele>1471</ele>
        <time>2020-06-27T13:43:13.665Z</time>
      </trkpt>
      <trkpt lat="44.92837" lon="5.47602">
        <ele>1470.5</ele>
        <time>2020-06-27T13:43:17.634Z</time>
      </trkpt>
      <trkpt lat="44.92831" lon="5.47602">
        <ele>1469.9</ele>
        <time>2020-06-27T13:43:21.608Z</time>
      </trkpt>
      <trkpt lat="44.92822" lon="5.47609">
        <ele>1469.3</ele>
        <time>2020-06-27T13:43:25.592Z</time>
      </trkpt>
      <trkpt lat="44.92819" lon="5.47612">
        <ele>1469.1</ele>
        <time>2020-06-27T13:43:29.579Z</time>
      </trkpt>
      <trkpt lat="44.92804" lon="5.47614">
        <ele>1467.5</ele>
        <time>2020-06-27T13:43:33.580Z</time>
      </trkpt>
      <trkpt lat="44.928" lon="5.47618">
        <ele>1467.3</ele>
        <time>2020-06-27T13:43:37.586Z</time>
      </trkpt>
      <trkpt lat="44.92791" lon="5.47623">
        <ele>1466.6</ele>
        <time>2020-06-27T13:43:41.602Z</time>
      </trkpt>
      <trkpt lat="44.92784" lon="5.47632">
        <ele>1467.2</ele>
        <time>2020-06-27T13:43:45.626Z</time>
      </trkpt>
      <trkpt lat="44.92777" lon="5.47637">
        <ele>1468.1</ele>
        <time>2020-06-27T13:43:49.658Z</time>
      </trkpt>
      <trkpt lat="44.92772" lon="5.47643">
        <ele>1469.1</ele>
        <time>2020-06-27T13:43:53.696Z</time>
      </trkpt>
      <trkpt lat="44.92772" lon="5.4765">
        <ele>1470.1</ele>
        <time>2020-06-27T13:43:57.739Z</time>
      </trkpt>
      <trkpt lat="44.92767" lon="5.4766">
        <ele>1471.7</ele>
        <time>2020-06-27T13:44:01.790Z</time>
      </trkpt>
      <trkpt lat="44.92768" lon="5.47665">
        <ele>1472.4</ele>
        <time>2020-06-27T13:44:05.844Z</time>
      </trkpt>
      <trkpt lat="44.92756" lon="5.47683">
        <ele>1475.3</ele>
        <time>2020-06-27T13:44:09.914Z</time>
      </trkpt>
      <trkpt lat="44.92749" lon="5.47683">
        <ele>1474.7</ele>
        <time>2020-06-27T13:44:13.991Z</time>
      </trkpt>
      <trkpt lat="44.92738" lon="5.47688">
        <ele>1473.9</ele>
        <time>2020-06-27T13:44:18.079Z</time>
      </trkpt>
      <trkpt lat="44.92723" lon="5.47688">
        <ele>1472.7</ele>
        <time>2020-06-27T13:44:22.181Z</time>
      </trkpt>
      <trkpt lat="44.92715" lon="5.47704">
        <ele>1472.4</ele>
        <time>2020-06-27T13:44:26.296Z</time>
      </trkpt>
      <trkpt lat="44.9271" lon="5.4771">
        <ele>1472.1</ele>
        <time>2020-06-27T13:44:30.418Z</time>
      </trkpt>
      <trkpt lat="44.92705" lon="5.47712">
        <ele>1472</ele>
        <time>2020-06-27T13:44:34.544Z</time>
      </trkpt>
      <trkpt lat="44.927" lon="5.47711">
        <ele>1472.2</ele>
        <time>2020-06-27T13:44:38.675Z</time>
      </trkpt>
      <trkpt lat="44.9269" lon="5.47723">
        <ele>1473.6</ele>
        <time>2020-06-27T13:44:42.818Z</time>
      </trkpt>
      <trkpt lat="44.92683" lon="5.47724">
        <ele>1474</ele>
        <time>2020-06-27T13:44:46.968Z</time>
      </trkpt>
      <trkpt lat="44.92682" lon="5.47721">
        <ele>1473.6</ele>
        <time>2020-06-27T13:44:51.120Z</time>
      </trkpt>
      <trkpt lat="44.92681" lon="5.4772">
        <ele>1473.5</ele>
        <time>2020-06-27T13:44:55.274Z</time>
      </trkpt>
      <trkpt lat="44.92679" lon="5.47722">
        <ele>1473.8</ele>
        <time>2020-06-27T13:44:59.430Z</time>
      </trkpt>
      <trkpt lat="44.92679" lon="5.47719">
        <ele>1473.4</ele>
        <time>2020-06-27T13:45:03.588Z</time>
      </trkpt>
      <trkpt lat="44.92681" lon="5.4772">
        <ele>1473.5</ele>
        <time>2020-06-27T13:45:07.747Z</time>
      </trkpt>
      <trkpt lat="44.92681" lon="5.47722">
        <ele>1473.8</ele>
        <time>2020-06-27T13:45:11.908Z</time>
      </trkpt>
      <trkpt lat="44.9268" lon="5.4772">
        <ele>1473.5</ele>
        <time>2020-06-27T13:45:16.070Z</time>
      </trkpt>
      <trkpt lat="44.92679" lon="5.47722">
        <ele>1473.8</ele>
        <time>2020-06-27T13:45:20.234Z</time>
      </trkpt>
      <trkpt lat="44.92683" lon="5.47726">
        <ele>1474.3</ele>
        <time>2020-06-27T13:45:24.403Z</time>
      </trkpt>
      <trkpt lat="44.92685" lon="5.47724">
        <ele>1473.9</ele>
        <time>2020-06-27T13:45:28.573Z</time>
      </trkpt>
      <trkpt lat="44.92685" lon="5.47726">
        <ele>1474.2</ele>
        <time>2020-06-27T13:45:32.745Z</time>
      </trkpt>
      <trkpt lat="44.92686" lon="5.47725">
        <ele>1474</ele>
        <time>2020-06-27T13:45:36.918Z</time>
      </trkpt>
      <trkpt lat="44.9268" lon="5.47726">
        <ele>1474.4</ele>
        <time>2020-06-27T13:45:41.097Z</time>
      </trkpt>
      <trkpt lat="44.92681" lon="5.47723">
        <ele>1473.9</ele>
        <time>2020-06-27T13:45:45.279Z</time>
      </trkpt>
      <trkpt lat="44.92673" lon="5.47724">
        <ele>1474.3</ele>
        <time>2020-06-27T13:45:49.468Z</time>
      </trkpt>
      <trkpt lat="44.92672" lon="5.47725">
        <ele>1474.5</ele>
        <time>2020-06-27T13:45:53.659Z</time>
      </trkpt>
      <trkpt lat="44.9267" lon="5.4773">
        <ele>1475.3</ele>
        <time>2020-06-27T13:45:57.853Z</time>
      </trkpt>
      <trkpt lat="44.92669" lon="5.47738">
        <ele>1476.5</ele>
        <time>2020-06-27T13:46:02.053Z</time>
      </trkpt>
      <trkpt lat="44.92656" lon="5.47766">
        <ele>1478.5</ele>
        <time>2020-06-27T13:46:06.275Z</time>
      </trkpt>
      <trkpt lat="44.9265" lon="5.47786">
        <ele>1477.8</ele>
        <time>2020-06-27T13:46:10.511Z</time>
      </trkpt>
      <trkpt lat="44.92643" lon="5.47793">
        <ele>1477.1</ele>
        <time>2020-06-27T13:46:14.756Z</time>
      </trkpt>
      <trkpt lat="44.92624" lon="5.47819">
        <ele>1477.4</ele>
        <time>2020-06-27T13:46:19.026Z</time>
      </trkpt>
      <trkpt lat="44.92618" lon="5.47824">
        <ele>1478</ele>
        <time>2020-06-27T13:46:23.302Z</time>
      </trkpt>
      <trkpt lat="44.92611" lon="5.47834">
        <ele>1479.3</ele>
        <time>2020-06-27T13:46:27.588Z</time>
      </trkpt>
      <trkpt lat="44.92602" lon="5.47852">
        <ele>1481.5</ele>
        <time>2020-06-27T13:46:31.888Z</time>
      </trkpt>
      <trkpt lat="44.92579" lon="5.47871">
        <ele>1480.6</ele>
        <time>2020-06-27T13:46:36.213Z</time>
      </trkpt>
      <trkpt lat="44.92573" lon="5.47877">
        <ele>1480.1</ele>
        <time>2020-06-27T13:46:40.545Z</time>
      </trkpt>
      <trkpt lat="44.92559" lon="5.47885">
        <ele>1479.2</ele>
        <time>2020-06-27T13:46:44.892Z</time>
      </trkpt>
      <trkpt lat="44.92551" lon="5.47892">
        <ele>1479.8</ele>
        <time>2020-06-27T13:46:49.248Z</time>
      </trkpt>
      <trkpt lat="44.92544" lon="5.47895">
        <ele>1478.7</ele>
        <time>2020-06-27T13:46:53.610Z</time>
      </trkpt>
      <trkpt lat="44.92533" lon="5.47903">
        <ele>1478.2</ele>
        <time>2020-06-27T13:46:57.984Z</time>
      </trkpt>
      <trkpt lat="44.92524" lon="5.47911">
        <ele>1478.4</ele>
        <time>2020-06-27T13:47:02.368Z</time>
      </trkpt>
      <trkpt lat="44.92514" lon="5.47926">
        <ele>1479.1</ele>
        <time>2020-06-27T13:47:06.766Z</time>
      </trkpt>
      <trkpt lat="44.92507" lon="5.47945">
        <ele>1479.4</ele>
        <time>2020-06-27T13:47:11.178Z</time>
      </trkpt>
      <trkpt lat="44.92497" lon="5.47962">
        <ele>1478.3</ele>
        <time>2020-06-27T13:47:15.605Z</time>
      </trkpt>
      <trkpt lat="44.92489" lon="5.47966">
        <ele>1477.4</ele>
        <time>2020-06-27T13:47:20.040Z</time>
      </trkpt>
      <trkpt lat="44.9249" lon="5.47968">
        <ele>1477.8</ele>
        <time>2020-06-27T13:47:24.476Z</time>
      </trkpt>
      <trkpt lat="44.92483" lon="5.47979">
        <ele>1478.5</ele>
        <time>2020-06-27T13:47:28.922Z</time>
      </trkpt>
      <trkpt lat="44.92479" lon="5.47988">
        <ele>1479.2</ele>
        <time>2020-06-27T13:47:33.375Z</time>
      </trkpt>
      <trkpt lat="44.92469" lon="5.48003">
        <ele>1478</ele>
        <time>2020-06-27T13:47:37.842Z</time>
      </trkpt>
      <trkpt lat="44.92466" lon="5.48012">
        <ele>1477.9</ele>
        <time>2020-06-27T13:47:42.316Z</time>
      </trkpt>
      <trkpt lat="44.92456" lon="5.48024">
        <ele>1476.6</ele>
        <time>2020-06-27T13:47:46.802Z</time>
      </trkpt>
      <trkpt lat="44.9245" lon="5.48038">
        <ele>1476.4</ele>
        <time>2020-06-27T13:47:51.299Z</time>
      </trkpt>
      <trkpt lat="44.92446" lon="5.4804">
        <ele>1475.9</ele>
        <time>2020-06-27T13:47:55.800Z</time>
      </trkpt>
      <trkpt lat="44.92442" lon="5.48039">
        <ele>1475.3</ele>
        <time>2020-06-27T13:48:00.304Z</time>
      </trkpt>
      <trkpt lat="44.92433" lon="5.48041">
        <ele>1473.9</ele>
        <time>2020-06-27T13:48:04.817Z</time>
      </trkpt>
      <trkpt lat="44.92417" lon="5.48062">
        <ele>1473.7</ele>
        <time>2020-06-27T13:48:09.351Z</time>
      </trkpt>
      <trkpt lat="44.92392" lon="5.48085">
        <ele>1471.5</ele>
        <time>2020-06-27T13:48:13.913Z</time>
      </trkpt>
      <trkpt lat="44.9239" lon="5.48088">
        <ele>1471.1</ele>
        <time>2020-06-27T13:48:18.478Z</time>
      </trkpt>
      <trkpt lat="44.9238" lon="5.48095">
        <ele>1468.8</ele>
        <time>2020-06-27T13:48:23.053Z</time>
      </trkpt>
      <trkpt lat="44.92374" lon="5.48104">
        <ele>1467.7</ele>
        <time>2020-06-27T13:48:27.636Z</time>
      </trkpt>
      <trkpt lat="44.92365" lon="5.4811">
        <ele>1467.3</ele>
        <time>2020-06-27T13:48:32.229Z</time>
      </trkpt>
      <trkpt lat="44.92357" lon="5.4812">
        <ele>1466.9</ele>
        <time>2020-06-27T13:48:36.832Z</time>
      </trkpt>
      <trkpt lat="44.92355" lon="5.48123">
        <ele>1466.6</ele>
        <time>2020-06-27T13:48:41.437Z</time>
      </trkpt>
      <trkpt lat="44.92351" lon="5.48123">
        <ele>1466.1</ele>
        <time>2020-06-27T13:48:46.046Z</time>
      </trkpt>
      <trkpt lat="44.92345" lon="5.48126">
        <ele>1465.3</ele>
        <time>2020-06-27T13:48:50.661Z</time>
      </trkpt>
      <trkpt lat="44.92328" lon="5.4814">
        <ele>1463.9</ele>
        <time>2020-06-27T13:48:55.295Z</time>
      </trkpt>
      <trkpt lat="44.9232" lon="5.48139">
        <ele>1462.7</ele>
        <time>2020-06-27T13:48:59.937Z</time>
      </trkpt>
      <trkpt lat="44.92315" lon="5.48134">
        <ele>1461.4</ele>
        <time>2020-06-27T13:49:04.584Z</time>
      </trkpt>
      <trkpt lat="44.92307" lon="5.48131">
        <ele>1460.2</ele>
        <time>2020-06-27T13:49:09.239Z</time>
      </trkpt>
      <trkpt lat="44.923" lon="5.48125">
        <ele>1459.4</ele>
        <time>2020-06-27T13:49:13.902Z</time>
      </trkpt>
      <trkpt lat="44.92287" lon="5.48126">
        <ele>1457.9</ele>
        <time>2020-06-27T13:49:18.577Z</time>
      </trkpt>
      <trkpt lat="44.92274" lon="5.48132">
        <ele>1458.3</ele>
        <time>2020-06-27T13:49:23.265Z</time>
      </trkpt>
      <trkpt lat="44.92267" lon="5.48133">
        <ele>1458.6</ele>
        <time>2020-06-27T13:49:27.959Z</time>
      </trkpt>
      <trkpt lat="44.92256" lon="5.48138">
        <ele>1459</ele>
        <time>2020-06-27T13:49:32.664Z</time>
      </trkpt>
      <trkpt lat="44.92249" lon="5.48144">
        <ele>1459.4</ele>
        <time>2020-06-27T13:49:37.376Z</time>
      </trkpt>
      <trkpt lat="44.92245" lon="5.48144">
        <ele>1459.5</ele>
        <time>2020-06-27T13:49:42.092Z</time>
      </trkpt>
      <trkpt lat="44.92229" lon="5.48138">
        <ele>1459.7</ele>
        <time>2020-06-27T13:49:46.824Z</time>
      </trkpt>
      <trkpt lat="44.92229" lon="5.48134">
        <ele>1459.5</ele>
        <time>2020-06-27T13:49:51.558Z</time>
      </trkpt>
      <trkpt lat="44.92227" lon="5.48135">
        <ele>1459.6</ele>
        <time>2020-06-27T13:49:56.294Z</time>
      </trkpt>
      <trkpt lat="44.9223" lon="5.48133">
        <ele>1459.4</ele>
        <time>2020-06-27T13:50:01.033Z</time>
      </trkpt>
      <trkpt lat="44.9223" lon="5.48135">
        <ele>1459.5</ele>
        <time>2020-06-27T13:50:05.773Z</time>
      </trkpt>
      <trkpt lat="44.92226" lon="5.48134">
        <ele>1459.6</ele>
        <time>2020-06-27T13:50:10.517Z</time>
      </trkpt>
      <trkpt lat="44.92216" lon="5.48129">
        <ele>1459.5</ele>
        <time>2020-06-27T13:50:15.271Z</time>
      </trkpt>
      <trkpt lat="44.92216" lon="5.48126">
        <ele>1459.4</ele>
        <time>2020-06-27T13:50:20.027Z</time>
      </trkpt>
      <trkpt lat="44.92217" lon="5.48128">
        <ele>1459.5</ele>
        <time>2020-06-27T13:50:24.785Z</time>
      </trkpt>
      <trkpt lat="44.92217" lon="5.4813">
        <ele>1459.6</ele>
        <time>2020-06-27T13:50:29.544Z</time>
      </trkpt>
      <trkpt lat="44.92218" lon="5.48126">
        <ele>1459.3</ele>
        <time>2020-06-27T13:50:34.306Z</time>
      </trkpt>
      <trkpt lat="44.92212" lon="5.48119">
        <ele>1459</ele>
        <time>2020-06-27T13:50:39.076Z</time>
      </trkpt>
      <trkpt lat="44.92207" lon="5.4811">
        <ele>1458.6</ele>
        <time>2020-06-27T13:50:43.853Z</time>
      </trkpt>
      <trkpt lat="44.92198" lon="5.48105">
        <ele>1458.4</ele>
        <time>2020-06-27T13:50:48.639Z</time>
      </trkpt>
      <trkpt lat="44.92191" lon="5.48103">
        <ele>1458.4</ele>
        <time>2020-06-27T13:50:53.432Z</time>
      </trkpt>
      <trkpt lat="44.9217" lon="5.48056">
        <ele>1455.8</ele>
        <time>2020-06-27T13:50:58.262Z</time>
      </trkpt>
      <trkpt lat="44.92163" lon="5.48047">
        <ele>1455.4</ele>
        <time>2020-06-27T13:51:03.101Z</time>
      </trkpt>
      <trkpt lat="44.92151" lon="5.4804">
        <ele>1455.1</ele>
        <time>2020-06-27T13:51:07.952Z</time>
      </trkpt>
      <trkpt lat="44.9214" lon="5.48018">
        <ele>1453.9</ele>
        <time>2020-06-27T13:51:12.822Z</time>
      </trkpt>
      <trkpt lat="44.9213" lon="5.48005">
        <ele>1453.2</ele>
        <time>2020-06-27T13:51:17.705Z</time>
      </trkpt>
      <trkpt lat="44.92125" lon="5.47993">
        <ele>1452.6</ele>
        <time>2020-06-27T13:51:22.597Z</time>
      </trkpt>
      <trkpt lat="44.92116" lon="5.47984">
        <ele>1452.5</ele>
        <time>2020-06-27T13:51:27.498Z</time>
      </trkpt>
      <trkpt lat="44.92113" lon="5.47974">
        <ele>1452.1</ele>
        <time>2020-06-27T13:51:32.407Z</time>
      </trkpt>
      <trkpt lat="44.92105" lon="5.47964">
        <ele>1452.1</ele>
        <time>2020-06-27T13:51:37.326Z</time>
      </trkpt>
      <trkpt lat="44.92101" lon="5.47945">
        <ele>1452.1</ele>
        <time>2020-06-27T13:51:42.258Z</time>
      </trkpt>
      <trkpt lat="44.92095" lon="5.47931">
        <ele>1452.2</ele>
        <time>2020-06-27T13:51:47.201Z</time>
      </trkpt>
      <trkpt lat="44.92089" lon="5.47909">
        <ele>1452.1</ele>
        <time>2020-06-27T13:51:52.159Z</time>
      </trkpt>
      <trkpt lat="44.92085" lon="5.47875">
        <ele>1451.8</ele>
        <time>2020-06-27T13:51:57.141Z</time>
      </trkpt>
      <trkpt lat="44.92079" lon="5.47865">
        <ele>1452.2</ele>
        <time>2020-06-27T13:52:02.132Z</time>
      </trkpt>
      <trkpt lat="44.92074" lon="5.4786">
        <ele>1452.6</ele>
        <time>2020-06-27T13:52:07.128Z</time>
      </trkpt>
      <trkpt lat="44.92069" lon="5.4785">
        <ele>1452.9</ele>
        <time>2020-06-27T13:52:12.132Z</time>
      </trkpt>
      <trkpt lat="44.92062" lon="5.47844">
        <ele>1453.4</ele>
        <time>2020-06-27T13:52:17.144Z</time>
      </trkpt>
      <trkpt lat="44.92058" lon="5.47842">
        <ele>1453.7</ele>
        <time>2020-06-27T13:52:22.160Z</time>
      </trkpt>
      <trkpt lat="44.92053" lon="5.47827">
        <ele>1454.1</ele>
        <time>2020-06-27T13:52:27.187Z</time>
      </trkpt>
      <trkpt lat="44.92052" lon="5.47814">
        <ele>1454.2</ele>
        <time>2020-06-27T13:52:32.223Z</time>
      </trkpt>
      <trkpt lat="44.92039" lon="5.47798">
        <ele>1455</ele>
        <time>2020-06-27T13:52:37.275Z</time>
      </trkpt>
      <trkpt lat="44.92036" lon="5.47791">
        <ele>1454.8</ele>
        <time>2020-06-27T13:52:42.332Z</time>
      </trkpt>
      <trkpt lat="44.92026" lon="5.47781">
        <ele>1454.7</ele>
        <time>2020-06-27T13:52:47.401Z</time>
      </trkpt>
      <trkpt lat="44.92022" lon="5.47766">
        <ele>1454.4</ele>
        <time>2020-06-27T13:52:52.481Z</time>
      </trkpt>
      <trkpt lat="44.92014" lon="5.47763">
        <ele>1454.4</ele>
        <time>2020-06-27T13:52:57.569Z</time>
      </trkpt>
      <trkpt lat="44.9201" lon="5.4776">
        <ele>1454.4</ele>
        <time>2020-06-27T13:53:02.661Z</time>
      </trkpt>
      <trkpt lat="44.91999" lon="5.47757">
        <ele>1454.5</ele>
        <time>2020-06-27T13:53:07.763Z</time>
      </trkpt>
      <trkpt lat="44.91995" lon="5.47754">
        <ele>1454.4</ele>
        <time>2020-06-27T13:53:12.869Z</time>
      </trkpt>
      <trkpt lat="44.91979" lon="5.47749">
        <ele>1454.3</ele>
        <time>2020-06-27T13:53:17.990Z</time>
      </trkpt>
      <trkpt lat="44.91966" lon="5.47751">
        <ele>1454.1</ele>
        <time>2020-06-27T13:53:23.124Z</time>
      </trkpt>
      <trkpt lat="44.91951" lon="5.47749">
        <ele>1453.9</ele>
        <time>2020-06-27T13:53:28.272Z</time>
      </trkpt>
      <trkpt lat="44.91935" lon="5.4774">
        <ele>1453.5</ele>
        <time>2020-06-27T13:53:33.437Z</time>
      </trkpt>
      <trkpt lat="44.91916" lon="5.47733">
        <ele>1453</ele>
        <time>2020-06-27T13:53:38.620Z</time>
      </trkpt>
      <trkpt lat="44.9189" lon="5.47716">
        <ele>1452.4</ele>
        <time>2020-06-27T13:53:43.830Z</time>
      </trkpt>
      <trkpt lat="44.9188" lon="5.47718">
        <ele>1452.2</ele>
        <time>2020-06-27T13:53:49.049Z</time>
      </trkpt>
      <trkpt lat="44.91853" lon="5.47714">
        <ele>1452.3</ele>
        <time>2020-06-27T13:53:54.293Z</time>
      </trkpt>
      <trkpt lat="44.91847" lon="5.47715">
        <ele>1452.3</ele>
        <time>2020-06-27T13:53:59.544Z</time>
      </trkpt>
      <trkpt lat="44.91812" lon="5.47708">
        <ele>1452.8</ele>
        <time>2020-06-27T13:54:04.828Z</time>
      </trkpt>
      <trkpt lat="44.91791" lon="5.47715">
        <ele>1453</ele>
        <time>2020-06-27T13:54:10.132Z</time>
      </trkpt>
      <trkpt lat="44.9178" lon="5.47722">
        <ele>1453.3</ele>
        <time>2020-06-27T13:54:15.447Z</time>
      </trkpt>
      <trkpt lat="44.91776" lon="5.47722">
        <ele>1453.3</ele>
        <time>2020-06-27T13:54:20.766Z</time>
      </trkpt>
      <trkpt lat="44.91767" lon="5.47718">
        <ele>1453.3</ele>
        <time>2020-06-27T13:54:26.094Z</time>
      </trkpt>
      <trkpt lat="44.91759" lon="5.47709">
        <ele>1453.8</ele>
        <time>2020-06-27T13:54:31.432Z</time>
      </trkpt>
      <trkpt lat="44.91751" lon="5.47707">
        <ele>1454</ele>
        <time>2020-06-27T13:54:36.777Z</time>
      </trkpt>
      <trkpt lat="44.91744" lon="5.47696">
        <ele>1454.8</ele>
        <time>2020-06-27T13:54:42.132Z</time>
      </trkpt>
      <trkpt lat="44.91738" lon="5.47692">
        <ele>1455.1</ele>
        <time>2020-06-27T13:54:47.493Z</time>
      </trkpt>
      <trkpt lat="44.91719" lon="5.47687">
        <ele>1455.6</ele>
        <time>2020-06-27T13:54:52.872Z</time>
      </trkpt>
      <trkpt lat="44.91714" lon="5.4769">
        <ele>1455.5</ele>
        <time>2020-06-27T13:54:58.257Z</time>
      </trkpt>
      <trkpt lat="44.91708" lon="5.47696">
        <ele>1455.2</ele>
        <time>2020-06-27T13:55:03.649Z</time>
      </trkpt>
      <trkpt lat="44.91703" lon="5.47697">
        <ele>1454.9</ele>
        <time>2020-06-27T13:55:09.046Z</time>
      </trkpt>
      <trkpt lat="44.91697" lon="5.47708">
        <ele>1453.8</ele>
        <time>2020-06-27T13:55:14.452Z</time>
      </trkpt>
      <trkpt lat="44.91689" lon="5.47715">
        <ele>1452.6</ele>
        <time>2020-06-27T13:55:19.867Z</time>
      </trkpt>
      <trkpt lat="44.91683" lon="5.47725">
        <ele>1452.1</ele>
        <time>2020-06-27T13:55:25.290Z</time>
      </trkpt>
      <trkpt lat="44.91678" lon="5.47729">
        <ele>1451.7</ele>
        <time>2020-06-27T13:55:30.718Z</time>
      </trkpt>
      <trkpt lat="44.91674" lon="5.47732">
        <ele>1451.4</ele>
        <time>2020-06-27T13:55:36.151Z</time>
      </trkpt>
      <trkpt lat="44.9167" lon="5.47732">
        <ele>1451.1</ele>
        <time>2020-06-27T13:55:41.587Z</time>
      </trkpt>
      <trkpt lat="44.91666" lon="5.47729">
        <ele>1450.7</ele>
        <time>2020-06-27T13:55:47.028Z</time>
      </trkpt>
      <trkpt lat="44.91657" lon="5.4772">
        <ele>1449.8</ele>
        <time>2020-06-27T13:55:52.479Z</time>
      </trkpt>
      <trkpt lat="44.91644" lon="5.47718">
        <ele>1448.7</ele>
        <time>2020-06-27T13:55:57.942Z</time>
      </trkpt>
      <trkpt lat="44.91637" lon="5.47713">
        <ele>1448.4</ele>
        <time>2020-06-27T13:56:03.413Z</time>
      </trkpt>
      <trkpt lat="44.91631" lon="5.47712">
        <ele>1447.9</ele>
        <time>2020-06-27T13:56:08.889Z</time>
      </trkpt>
      <trkpt lat="44.91622" lon="5.47704">
        <ele>1447.7</ele>
        <time>2020-06-27T13:56:14.375Z</time>
      </trkpt>
      <trkpt lat="44.91615" lon="5.47702">
        <ele>1447.3</ele>
        <time>2020-06-27T13:56:19.868Z</time>
      </trkpt>
      <trkpt lat="44.91609" lon="5.47697">
        <ele>1447.2</ele>
        <time>2020-06-27T13:56:25.367Z</time>
      </trkpt>
      <trkpt lat="44.91598" lon="5.47693">
        <ele>1446.4</ele>
        <time>2020-06-27T13:56:30.877Z</time>
      </trkpt>
      <trkpt lat="44.91586" lon="5.47682">
        <ele>1446.1</ele>
        <time>2020-06-27T13:56:36.400Z</time>
      </trkpt>
      <trkpt lat="44.91574" lon="5.4766">
        <ele>1446.9</ele>
        <time>2020-06-27T13:56:41.942Z</time>
      </trkpt>
      <trkpt lat="44.91557" lon="5.4765">
        <ele>1446.2</ele>
        <time>2020-06-27T13:56:47.501Z</time>
      </trkpt>
      <trkpt lat="44.91547" lon="5.47648">
        <ele>1445</ele>
        <time>2020-06-27T13:56:53.071Z</time>
      </trkpt>
      <trkpt lat="44.91541" lon="5.47642">
        <ele>1444.9</ele>
        <time>2020-06-27T13:56:58.647Z</time>
      </trkpt>
      <trkpt lat="44.91536" lon="5.47646">
        <ele>1444.1</ele>
        <time>2020-06-27T13:57:04.229Z</time>
      </trkpt>
      <trkpt lat="44.91533" lon="5.47652">
        <ele>1443.1</ele>
        <time>2020-06-27T13:57:09.816Z</time>
      </trkpt>
      <trkpt lat="44.9153" lon="5.47654">
        <ele>1442.7</ele>
        <time>2020-06-27T13:57:15.406Z</time>
      </trkpt>
      <trkpt lat="44.91519" lon="5.47655">
        <ele>1442.1</ele>
        <time>2020-06-27T13:57:21.007Z</time>
      </trkpt>
      <trkpt lat="44.91509" lon="5.47661">
        <ele>1440.8</ele>
        <time>2020-06-27T13:57:26.618Z</time>
      </trkpt>
      <trkpt lat="44.91497" lon="5.47678">
        <ele>1438.3</ele>
        <time>2020-06-27T13:57:32.244Z</time>
      </trkpt>
      <trkpt lat="44.9149" lon="5.47683">
        <ele>1438.2</ele>
        <time>2020-06-27T13:57:37.878Z</time>
      </trkpt>
      <trkpt lat="44.91486" lon="5.47688">
        <ele>1438</ele>
        <time>2020-06-27T13:57:43.517Z</time>
      </trkpt>
      <trkpt lat="44.9148" lon="5.4769">
        <ele>1438</ele>
        <time>2020-06-27T13:57:49.161Z</time>
      </trkpt>
      <trkpt lat="44.91471" lon="5.47699">
        <ele>1437.7</ele>
        <time>2020-06-27T13:57:54.816Z</time>
      </trkpt>
      <trkpt lat="44.91465" lon="5.47711">
        <ele>1437.1</ele>
        <time>2020-06-27T13:58:00.481Z</time>
      </trkpt>
      <trkpt lat="44.91457" lon="5.47714">
        <ele>1437.1</ele>
        <time>2020-06-27T13:58:06.153Z</time>
      </trkpt>
      <trkpt lat="44.91443" lon="5.47713">
        <ele>1437.6</ele>
        <time>2020-06-27T13:58:11.838Z</time>
      </trkpt>
      <trkpt lat="44.91436" lon="5.47709">
        <ele>1437.9</ele>
        <time>2020-06-27T13:58:17.531Z</time>
      </trkpt>
      <trkpt lat="44.91425" lon="5.47695">
        <ele>1438.3</ele>
        <time>2020-06-27T13:58:23.237Z</time>
      </trkpt>
      <trkpt lat="44.91417" lon="5.47688">
        <ele>1438.6</ele>
        <time>2020-06-27T13:58:28.952Z</time>
      </trkpt>
      <trkpt lat="44.91414" lon="5.4768">
        <ele>1438.6</ele>
        <time>2020-06-27T13:58:34.673Z</time>
      </trkpt>
      <trkpt lat="44.91407" lon="5.47653">
        <ele>1439.6</ele>
        <time>2020-06-27T13:58:40.413Z</time>
      </trkpt>
      <trkpt lat="44.914" lon="5.47641">
        <ele>1440.2</ele>
        <time>2020-06-27T13:58:46.164Z</time>
      </trkpt>
      <trkpt lat="44.91379" lon="5.47625">
        <ele>1440.3</ele>
        <time>2020-06-27T13:58:51.937Z</time>
      </trkpt>
      <trkpt lat="44.91369" lon="5.47614">
        <ele>1440.6</ele>
        <time>2020-06-27T13:58:57.723Z</time>
      </trkpt>
      <trkpt lat="44.91361" lon="5.47612">
        <ele>1440.8</ele>
        <time>2020-06-27T13:59:03.517Z</time>
      </trkpt>
      <trkpt lat="44.91351" lon="5.47604">
        <ele>1441.2</ele>
        <time>2020-06-27T13:59:09.321Z</time>
      </trkpt>
      <trkpt lat="44.91343" lon="5.47586">
        <ele>1441.9</ele>
        <time>2020-06-27T13:59:15.139Z</time>
      </trkpt>
      <trkpt lat="44.91337" lon="5.47578">
        <ele>1442.2</ele>
        <time>2020-06-27T13:59:20.965Z</time>
      </trkpt>
      <trkpt lat="44.91329" lon="5.47562">
        <ele>1442.8</ele>
        <time>2020-06-27T13:59:26.804Z</time>
      </trkpt>
      <trkpt lat="44.91323" lon="5.47548">
        <ele>1443.3</ele>
        <time>2020-06-27T13:59:32.655Z</time>
      </trkpt>
      <trkpt lat="44.91297" lon="5.47541">
        <ele>1444.5</ele>
        <time>2020-06-27T13:59:38.530Z</time>
      </trkpt>
      <trkpt lat="44.91286" lon="5.47535">
        <ele>1444.8</ele>
        <time>2020-06-27T13:59:44.416Z</time>
      </trkpt>
      <trkpt lat="44.91282" lon="5.47534">
        <ele>1444.7</ele>
        <time>2020-06-27T13:59:50.307Z</time>
      </trkpt>
      <trkpt lat="44.91245" lon="5.47511">
        <ele>1445.2</ele>
        <time>2020-06-27T13:59:56.236Z</time>
      </trkpt>
      <trkpt lat="44.91229" lon="5.4751">
        <ele>1445.7</ele>
        <time>2020-06-27T14:00:02.179Z</time>
      </trkpt>
      <trkpt lat="44.91225" lon="5.47509">
        <ele>1445.9</ele>
        <time>2020-06-27T14:00:08.127Z</time>
      </trkpt>
      <trkpt lat="44.91213" lon="5.475">
        <ele>1446.2</ele>
        <time>2020-06-27T14:00:14.087Z</time>
      </trkpt>
      <trkpt lat="44.91202" lon="5.47478">
        <ele>1446.1</ele>
        <time>2020-06-27T14:00:20.065Z</time>
      </trkpt>
      <trkpt lat="44.91196" lon="5.47476">
        <ele>1446</ele>
        <time>2020-06-27T14:00:26.048Z</time>
      </trkpt>
      <trkpt lat="44.91193" lon="5.47472">
        <ele>1445.9</ele>
        <time>2020-06-27T14:00:32.035Z</time>
      </trkpt>
      <trkpt lat="44.91189" lon="5.47478">
        <ele>1445.9</ele>
        <time>2020-06-27T14:00:38.028Z</time>
      </trkpt>
      <trkpt lat="44.91181" lon="5.47481">
        <ele>1445.9</ele>
        <time>2020-06-27T14:00:44.029Z</time>
      </trkpt>
      <trkpt lat="44.91172" lon="5.47482">
        <ele>1445.8</ele>
        <time>2020-06-27T14:00:50.039Z</time>
      </trkpt>
      <trkpt lat="44.91155" lon="5.47475">
        <ele>1445.5</ele>
        <time>2020-06-27T14:00:56.066Z</time>
      </trkpt>
      <trkpt lat="44.91132" lon="5.4747">
        <ele>1445.1</ele>
        <time>2020-06-27T14:01:02.114Z</time>
      </trkpt>
      <trkpt lat="44.91123" lon="5.47463">
        <ele>1445.1</ele>
        <time>2020-06-27T14:01:08.172Z</time>
      </trkpt>
      <trkpt lat="44.91118" lon="5.47445">
        <ele>1446</ele>
        <time>2020-06-27T14:01:14.242Z</time>
      </trkpt>
      <trkpt lat="44.91108" lon="5.47433">
        <ele>1447.1</ele>
        <time>2020-06-27T14:01:20.325Z</time>
      </trkpt>
      <trkpt lat="44.9109" lon="5.47424">
        <ele>1448.8</ele>
        <time>2020-06-27T14:01:26.426Z</time>
      </trkpt>
      <trkpt lat="44.91071" lon="5.47409">
        <ele>1450.8</ele>
        <time>2020-06-27T14:01:32.547Z</time>
      </trkpt>
      <trkpt lat="44.91055" lon="5.47404">
        <ele>1452.5</ele>
        <time>2020-06-27T14:01:38.683Z</time>
      </trkpt>
      <trkpt lat="44.91048" lon="5.47404">
        <ele>1453.3</ele>
        <time>2020-06-27T14:01:44.826Z</time>
      </trkpt>
      <trkpt lat="44.91041" lon="5.4741">
        <ele>1454.2</ele>
        <time>2020-06-27T14:01:50.977Z</time>
      </trkpt>
      <trkpt lat="44.91034" lon="5.47419">
        <ele>1453.9</ele>
        <time>2020-06-27T14:01:57.137Z</time>
      </trkpt>
      <trkpt lat="44.91021" lon="5.47424">
        <ele>1452.9</ele>
        <time>2020-06-27T14:02:03.309Z</time>
      </trkpt>
      <trkpt lat="44.90997" lon="5.47446">
        <ele>1452.5</ele>
        <time>2020-06-27T14:02:09.508Z</time>
      </trkpt>
      <trkpt lat="44.90982" lon="5.47446">
        <ele>1452.1</ele>
        <time>2020-06-27T14:02:15.721Z</time>
      </trkpt>
      <trkpt lat="44.90968" lon="5.4744">
        <ele>1451.4</ele>
        <time>2020-06-27T14:02:21.948Z</time>
      </trkpt>
      <trkpt lat="44.90959" lon="5.47443">
        <ele>1451.4</ele>
        <time>2020-06-27T14:02:28.184Z</time>
      </trkpt>
      <trkpt lat="44.9095" lon="5.4745">
        <ele>1451.6</ele>
        <time>2020-06-27T14:02:34.429Z</time>
      </trkpt>
      <trkpt lat="44.90941" lon="5.47442">
        <ele>1450.7</ele>
        <time>2020-06-27T14:02:40.684Z</time>
      </trkpt>
      <trkpt lat="44.90932" lon="5.47442">
        <ele>1450.3</ele>
        <time>2020-06-27T14:02:46.948Z</time>
      </trkpt>
      <trkpt lat="44.90919" lon="5.47425">
        <ele>1448.7</ele>
        <time>2020-06-27T14:02:53.228Z</time>
      </trkpt>
      <trkpt lat="44.90908" lon="5.47418">
        <ele>1447.7</ele>
        <time>2020-06-27T14:02:59.519Z</time>
      </trkpt>
      <trkpt lat="44.90901" lon="5.47416">
        <ele>1447.2</ele>
        <time>2020-06-27T14:03:05.817Z</time>
      </trkpt>
      <trkpt lat="44.90893" lon="5.47409">
        <ele>1446.3</ele>
        <time>2020-06-27T14:03:12.124Z</time>
      </trkpt>
      <trkpt lat="44.90881" lon="5.47416">
        <ele>1445.7</ele>
        <time>2020-06-27T14:03:18.443Z</time>
      </trkpt>
      <trkpt lat="44.90875" lon="5.47417">
        <ele>1445.3</ele>
        <time>2020-06-27T14:03:24.768Z</time>
      </trkpt>
      <trkpt lat="44.90861" lon="5.47426">
        <ele>1446.2</ele>
        <time>2020-06-27T14:03:31.107Z</time>
      </trkpt>
      <trkpt lat="44.90844" lon="5.47421">
        <ele>1446.8</ele>
        <time>2020-06-27T14:03:37.462Z</time>
      </trkpt>
      <trkpt lat="44.90812" lon="5.47421">
        <ele>1447.2</ele>
        <time>2020-06-27T14:03:43.847Z</time>
      </trkpt>
      <trkpt lat="44.90801" lon="5.47419">
        <ele>1447</ele>
        <time>2020-06-27T14:03:50.242Z</time>
      </trkpt>
      <trkpt lat="44.90798" lon="5.47416">
        <ele>1447</ele>
        <time>2020-06-27T14:03:56.641Z</time>
      </trkpt>
      <trkpt lat="44.9079" lon="5.47414">
        <ele>1446.9</ele>
        <time>2020-06-27T14:04:03.047Z</time>
      </trkpt>
      <trkpt lat="44.9078" lon="5.47415">
        <ele>1447.6</ele>
        <time>2020-06-27T14:04:09.463Z</time>
      </trkpt>
      <trkpt lat="44.90765" lon="5.47422">
        <ele>1448.4</ele>
        <time>2020-06-27T14:04:15.894Z</time>
      </trkpt>
      <trkpt lat="44.90735" lon="5.47416">
        <ele>1451.3</ele>
        <time>2020-06-27T14:04:22.353Z</time>
      </trkpt>
      <trkpt lat="44.90732" lon="5.47414">
        <ele>1451.7</ele>
        <time>2020-06-27T14:04:28.815Z</time>
      </trkpt>
      <trkpt lat="44.90733" lon="5.47413">
        <ele>1451.5</ele>
        <time>2020-06-27T14:04:35.279Z</time>
      </trkpt>
      <trkpt lat="44.90729" lon="5.47417">
        <ele>1452.5</ele>
        <time>2020-06-27T14:04:41.747Z</time>
      </trkpt>
      <trkpt lat="44.90726" lon="5.47415">
        <ele>1452.9</ele>
        <time>2020-06-27T14:04:48.219Z</time>
      </trkpt>
      <trkpt lat="44.90712" lon="5.47418">
        <ele>1455.6</ele>
        <time>2020-06-27T14:04:54.704Z</time>
      </trkpt>
      <trkpt lat="44.90697" lon="5.47413">
        <ele>1456.5</ele>
        <time>2020-06-27T14:05:01.204Z</time>
      </trkpt>
      <trkpt lat="44.90687" lon="5.47405">
        <ele>1456.3</ele>
        <time>2020-06-27T14:05:07.714Z</time>
      </trkpt>
      <trkpt lat="44.9068" lon="5.47404">
        <ele>1456.5</ele>
        <time>2020-06-27T14:05:14.231Z</time>
      </trkpt>
      <trkpt lat="44.90675" lon="5.47401">
        <ele>1456.4</ele>
        <time>2020-06-27T14:05:20.753Z</time>
      </trkpt>
      <trkpt lat="44.9067" lon="5.47403">
        <ele>1456.8</ele>
        <time>2020-06-27T14:05:27.279Z</time>
      </trkpt>
      <trkpt lat="44.90655" lon="5.474">
        <ele>1457.1</ele>
        <time>2020-06-27T14:05:33.819Z</time>
      </trkpt>
      <trkpt lat="44.9065" lon="5.47396">
        <ele>1457</ele>
        <time>2020-06-27T14:05:40.365Z</time>
      </trkpt>
      <trkpt lat="44.90637" lon="5.47391">
        <ele>1457.1</ele>
        <time>2020-06-27T14:05:46.924Z</time>
      </trkpt>
      <trkpt lat="44.90636" lon="5.47388">
        <ele>1456.9</ele>
        <time>2020-06-27T14:05:53.485Z</time>
      </trkpt>
      <trkpt lat="44.90629" lon="5.47384">
        <ele>1456.9</ele>
        <time>2020-06-27T14:06:00.053Z</time>
      </trkpt>
      <trkpt lat="44.90615" lon="5.4737">
        <ele>1457.7</ele>
        <time>2020-06-27T14:06:06.637Z</time>
      </trkpt>
      <trkpt lat="44.90601" lon="5.47366">
        <ele>1457.9</ele>
        <time>2020-06-27T14:06:13.235Z</time>
      </trkpt>
      <trkpt lat="44.90584" lon="5.47356">
        <ele>1458.6</ele>
        <time>2020-06-27T14:06:19.850Z</time>
      </trkpt>
      <trkpt lat="44.90573" lon="5.47351">
        <ele>1459</ele>
        <time>2020-06-27T14:06:26.476Z</time>
      </trkpt>
      <trkpt lat="44.90562" lon="5.47349">
        <ele>1459.3</ele>
        <time>2020-06-27T14:06:33.112Z</time>
      </trkpt>
      <trkpt lat="44.9055" lon="5.47343">
        <ele>1459.7</ele>
        <time>2020-06-27T14:06:39.760Z</time>
      </trkpt>
      <trkpt lat="44.90533" lon="5.47328">
        <ele>1461.9</ele>
        <time>2020-06-27T14:06:46.427Z</time>
      </trkpt>
      <trkpt lat="44.90517" lon="5.47304">
        <ele>1465.9</ele>
        <time>2020-06-27T14:06:53.116Z</time>
      </trkpt>
      <trkpt lat="44.90505" lon="5.47292">
        <ele>1468.9</ele>
        <time>2020-06-27T14:06:59.818Z</time>
      </trkpt>
      <trkpt lat="44.90491" lon="5.473">
        <ele>1471.6</ele>
        <time>2020-06-27T14:07:06.534Z</time>
      </trkpt>
      <trkpt lat="44.90485" lon="5.47306">
        <ele>1472.7</ele>
        <time>2020-06-27T14:07:13.257Z</time>
      </trkpt>
      <trkpt lat="44.90474" lon="5.47331">
        <ele>1472.7</ele>
        <time>2020-06-27T14:07:20.000Z</time>
      </trkpt>
      <trkpt lat="44.9046" lon="5.47351">
        <ele>1470.7</ele>
        <time>2020-06-27T14:07:26.762Z</time>
      </trkpt>
      <trkpt lat="44.90447" lon="5.47387">
        <ele>1466.4</ele>
        <time>2020-06-27T14:07:33.550Z</time>
      </trkpt>
      <trkpt lat="44.90443" lon="5.47408">
        <ele>1466.1</ele>
        <time>2020-06-27T14:07:40.353Z</time>
      </trkpt>
      <trkpt lat="44.90434" lon="5.47429">
        <ele>1466</ele>
        <time>2020-06-27T14:07:47.173Z</time>
      </trkpt>
      <trkpt lat="44.90423" lon="5.4744">
        <ele>1465.5</ele>
        <time>2020-06-27T14:07:54.005Z</time>
      </trkpt>
      <trkpt lat="44.9041" lon="5.47448">
        <ele>1463.9</ele>
        <time>2020-06-27T14:08:00.851Z</time>
      </trkpt>
      <trkpt lat="44.90399" lon="5.47462">
        <ele>1461.7</ele>
        <time>2020-06-27T14:08:07.711Z</time>
      </trkpt>
      <trkpt lat="44.90395" lon="5.47464">
        <ele>1461.3</ele>
        <time>2020-06-27T14:08:14.575Z</time>
      </trkpt>
      <trkpt lat="44.90388" lon="5.47462">
        <ele>1461.2</ele>
        <time>2020-06-27T14:08:21.445Z</time>
      </trkpt>
      <trkpt lat="44.90369" lon="5.47447">
        <ele>1462</ele>
        <time>2020-06-27T14:08:28.336Z</time>
      </trkpt>
      <trkpt lat="44.90361" lon="5.47453">
        <ele>1460.8</ele>
        <time>2020-06-27T14:08:35.235Z</time>
      </trkpt>
      <trkpt lat="44.90351" lon="5.47452">
        <ele>1460.6</ele>
        <time>2020-06-27T14:08:42.143Z</time>
      </trkpt>
      <trkpt lat="44.90348" lon="5.47449">
        <ele>1460.7</ele>
        <time>2020-06-27T14:08:49.055Z</time>
      </trkpt>
      <trkpt lat="44.90342" lon="5.47447">
        <ele>1460.7</ele>
        <time>2020-06-27T14:08:55.973Z</time>
      </trkpt>
      <trkpt lat="44.90334" lon="5.47442">
        <ele>1460.9</ele>
        <time>2020-06-27T14:09:02.899Z</time>
      </trkpt>
      <trkpt lat="44.90327" lon="5.47437">
        <ele>1461.1</ele>
        <time>2020-06-27T14:09:09.833Z</time>
      </trkpt>
      <trkpt lat="44.90319" lon="5.47426">
        <ele>1461.9</ele>
        <time>2020-06-27T14:09:16.777Z</time>
      </trkpt>
      <trkpt lat="44.90313" lon="5.47426">
        <ele>1461.7</ele>
        <time>2020-06-27T14:09:23.727Z</time>
      </trkpt>
      <trkpt lat="44.90296" lon="5.47422">
        <ele>1461.5</ele>
        <time>2020-06-27T14:09:30.693Z</time>
      </trkpt>
      <trkpt lat="44.90285" lon="5.47413">
        <ele>1461.9</ele>
        <time>2020-06-27T14:09:37.671Z</time>
      </trkpt>
      <trkpt lat="44.9027" lon="5.47391">
        <ele>1463.3</ele>
        <time>2020-06-27T14:09:44.669Z</time>
      </trkpt>
      <trkpt lat="44.90265" lon="5.47378">
        <ele>1464.4</ele>
        <time>2020-06-27T14:09:51.677Z</time>
      </trkpt>
      <trkpt lat="44.90261" lon="5.47375">
        <ele>1464.6</ele>
        <time>2020-06-27T14:09:58.689Z</time>
      </trkpt>
      <trkpt lat="44.90254" lon="5.4736">
        <ele>1466</ele>
        <time>2020-06-27T14:10:05.713Z</time>
      </trkpt>
      <trkpt lat="44.90247" lon="5.47343">
        <ele>1467.7</ele>
        <time>2020-06-27T14:10:12.750Z</time>
      </trkpt>
      <trkpt lat="44.90232" lon="5.47329">
        <ele>1468.7</ele>
        <time>2020-06-27T14:10:19.805Z</time>
      </trkpt>
      <trkpt lat="44.90228" lon="5.47323">
        <ele>1469.2</ele>
        <time>2020-06-27T14:10:26.865Z</time>
      </trkpt>
      <trkpt lat="44.90216" lon="5.47285">
        <ele>1473.1</ele>
        <time>2020-06-27T14:10:33.952Z</time>
      </trkpt>
      <trkpt lat="44.90211" lon="5.4728">
        <ele>1473.1</ele>
        <time>2020-06-27T14:10:41.045Z</time>
      </trkpt>
      <trkpt lat="44.90195" lon="5.47243">
        <ele>1475.9</ele>
        <time>2020-06-27T14:10:48.167Z</time>
      </trkpt>
      <trkpt lat="44.90183" lon="5.47225">
        <ele>1477.5</ele>
        <time>2020-06-27T14:10:55.306Z</time>
      </trkpt>
      <trkpt lat="44.90178" lon="5.47221">
        <ele>1477.9</ele>
        <time>2020-06-27T14:11:02.450Z</time>
      </trkpt>
      <trkpt lat="44.90171" lon="5.47203">
        <ele>1478</ele>
        <time>2020-06-27T14:11:09.608Z</time>
      </trkpt>
      <trkpt lat="44.90169" lon="5.47196">
        <ele>1477.7</ele>
        <time>2020-06-27T14:11:16.771Z</time>
      </trkpt>
      <trkpt lat="44.90171" lon="5.47182">
        <ele>1477.2</ele>
        <time>2020-06-27T14:11:23.943Z</time>
      </trkpt>
      <trkpt lat="44.90166" lon="5.47183">
        <ele>1477.3</ele>
        <time>2020-06-27T14:11:31.119Z</time>
      </trkpt>
      <trkpt lat="44.90165" lon="5.47179">
        <ele>1477.2</ele>
        <time>2020-06-27T14:11:38.298Z</time>
      </trkpt>
      <trkpt lat="44.90171" lon="5.47174">
        <ele>1477.1</ele>
        <time>2020-06-27T14:11:45.483Z</time>
      </trkpt>
      <trkpt lat="44.90174" lon="5.47176">
        <ele>1477.1</ele>
        <time>2020-06-27T14:11:52.671Z</time>
      </trkpt>
      <trkpt lat="44.90177" lon="5.47182">
        <ele>1477.2</ele>
        <time>2020-06-27T14:11:59.864Z</time>
      </trkpt>
      <trkpt lat="44.90173" lon="5.47179">
        <ele>1477.1</ele>
        <time>2020-06-27T14:12:07.061Z</time>
      </trkpt>
      <trkpt lat="44.90172" lon="5.47177">
        <ele>1477.1</ele>
        <time>2020-06-27T14:12:14.260Z</time>
      </trkpt>
      <trkpt lat="44.90173" lon="5.47175">
        <ele>1477.1</ele>
        <time>2020-06-27T14:12:21.461Z</time>
      </trkpt>
      <trkpt lat="44.90172" lon="5.47181">
        <ele>1477.2</ele>
        <time>2020-06-27T14:12:28.666Z</time>
      </trkpt>
      <trkpt lat="44.9017" lon="5.47178">
        <ele>1477.1</ele>
        <time>2020-06-27T14:12:35.873Z</time>
      </trkpt>
      <trkpt lat="44.9017" lon="5.47174">
        <ele>1477.1</ele>
        <time>2020-06-27T14:12:43.083Z</time>
      </trkpt>
      <trkpt lat="44.90155" lon="5.47134">
        <ele>1476.4</ele>
        <time>2020-06-27T14:12:50.323Z</time>
      </trkpt>
      <trkpt lat="44.90154" lon="5.47125">
        <ele>1476.1</ele>
        <time>2020-06-27T14:12:57.569Z</time>
      </trkpt>
      <trkpt lat="44.90149" lon="5.47102">
        <ele>1475.2</ele>
        <time>2020-06-27T14:13:04.831Z</time>
      </trkpt>
      <trkpt lat="44.90148" lon="5.47082">
        <ele>1474.5</ele>
        <time>2020-06-27T14:13:12.106Z</time>
      </trkpt>
      <trkpt lat="44.9015" lon="5.47068">
        <ele>1473.7</ele>
        <time>2020-06-27T14:13:19.391Z</time>
      </trkpt>
      <trkpt lat="44.90149" lon="5.4706">
        <ele>1473.1</ele>
        <time>2020-06-27T14:13:26.682Z</time>
      </trkpt>
      <trkpt lat="44.90143" lon="5.4705">
        <ele>1472.6</ele>
        <time>2020-06-27T14:13:33.981Z</time>
      </trkpt>
      <trkpt lat="44.9013" lon="5.47039">
        <ele>1472.3</ele>
        <time>2020-06-27T14:13:41.294Z</time>
      </trkpt>
      <trkpt lat="44.90126" lon="5.47032">
        <ele>1472.1</ele>
        <time>2020-06-27T14:13:48.613Z</time>
      </trkpt>
      <trkpt lat="44.90122" lon="5.47029">
        <ele>1472.1</ele>
        <time>2020-06-27T14:13:55.937Z</time>
      </trkpt>
      <trkpt lat="44.90117" lon="5.4703">
        <ele>1472.6</ele>
        <time>2020-06-27T14:14:03.265Z</time>
      </trkpt>
      <trkpt lat="44.90099" lon="5.47022">
        <ele>1473.7</ele>
        <time>2020-06-27T14:14:10.611Z</time>
      </trkpt>
      <trkpt lat="44.90088" lon="5.47011">
        <ele>1474.1</ele>
        <time>2020-06-27T14:14:17.969Z</time>
      </trkpt>
      <trkpt lat="44.90089" lon="5.46999">
        <ele>1473.5</ele>
        <time>2020-06-27T14:14:25.335Z</time>
      </trkpt>
      <trkpt lat="44.90087" lon="5.46983">
        <ele>1472.9</ele>
        <time>2020-06-27T14:14:32.712Z</time>
      </trkpt>
      <trkpt lat="44.90092" lon="5.46901">
        <ele>1469.3</ele>
        <time>2020-06-27T14:14:40.144Z</time>
      </trkpt>
      <trkpt lat="44.9009" lon="5.46885">
        <ele>1469.1</ele>
        <time>2020-06-27T14:14:47.587Z</time>
      </trkpt>
      <trkpt lat="44.90094" lon="5.46871">
        <ele>1468.2</ele>
        <time>2020-06-27T14:14:55.040Z</time>
      </trkpt>
      <trkpt lat="44.90094" lon="5.46863">
        <ele>1467.8</ele>
        <time>2020-06-27T14:15:02.498Z</time>
      </trkpt>
      <trkpt lat="44.90087" lon="5.46835">
        <ele>1467.6</ele>
        <time>2020-06-27T14:15:09.976Z</time>
      </trkpt>
      <trkpt lat="44.90076" lon="5.46804">
        <ele>1467.9</ele>
        <time>2020-06-27T14:15:17.477Z</time>
      </trkpt>
      <trkpt lat="44.90064" lon="5.4679">
        <ele>1467.8</ele>
        <time>2020-06-27T14:15:24.993Z</time>
      </trkpt>
      <trkpt lat="44.90045" lon="5.46775">
        <ele>1467.4</ele>
        <time>2020-06-27T14:15:32.529Z</time>
      </trkpt>
      <trkpt lat="44.90042" lon="5.46771">
        <ele>1467.3</ele>
        <time>2020-06-27T14:15:40.069Z</time>
      </trkpt>
      <trkpt lat="44.90041" lon="5.46751">
        <ele>1466.8</ele>
        <time>2020-06-27T14:15:47.623Z</time>
      </trkpt>
      <trkpt lat="44.90047" lon="5.46744">
        <ele>1466.7</ele>
        <time>2020-06-27T14:15:55.184Z</time>
      </trkpt>
      <trkpt lat="44.90048" lon="5.46745">
        <ele>1466.7</ele>
        <time>2020-06-27T14:16:02.747Z</time>
      </trkpt>
      <trkpt lat="44.90048" lon="5.46747">
        <ele>1466.7</ele>
        <time>2020-06-27T14:16:10.311Z</time>
      </trkpt>
      <trkpt lat="44.90049" lon="5.46746">
        <ele>1466.7</ele>
        <time>2020-06-27T14:16:17.876Z</time>
      </trkpt>
      <trkpt lat="44.90049" lon="5.46745">
        <ele>1466.7</ele>
        <time>2020-06-27T14:16:25.442Z</time>
      </trkpt>
      <trkpt lat="44.90047" lon="5.46745">
        <ele>1466.7</ele>
        <time>2020-06-27T14:16:33.010Z</time>
      </trkpt>
      <trkpt lat="44.90039" lon="5.46749">
        <ele>1467</ele>
        <time>2020-06-27T14:16:40.586Z</time>
      </trkpt>
      <trkpt lat="44.90036" lon="5.46753">
        <ele>1467.7</ele>
        <time>2020-06-27T14:16:48.166Z</time>
      </trkpt>
      <trkpt lat="44.90035" lon="5.46758">
        <ele>1468</ele>
        <time>2020-06-27T14:16:55.750Z</time>
      </trkpt>
      <trkpt lat="44.90036" lon="5.46757">
        <ele>1467.8</ele>
        <time>2020-06-27T14:17:03.335Z</time>
      </trkpt>
      <trkpt lat="44.90036" lon="5.46756">
        <ele>1467.8</ele>
        <time>2020-06-27T14:17:10.921Z</time>
      </trkpt>
      <trkpt lat="44.90034" lon="5.46756">
        <ele>1468.2</ele>
        <time>2020-06-27T14:17:18.509Z</time>
      </trkpt>
      <trkpt lat="44.90033" lon="5.46759">
        <ele>1468.5</ele>
        <time>2020-06-27T14:17:26.099Z</time>
      </trkpt>
      <trkpt lat="44.90034" lon="5.46756">
        <ele>1468.2</ele>
        <time>2020-06-27T14:17:33.691Z</time>
      </trkpt>
      <trkpt lat="44.90036" lon="5.46755">
        <ele>1467.8</ele>
        <time>2020-06-27T14:17:41.285Z</time>
      </trkpt>
      <trkpt lat="44.90034" lon="5.46756">
        <ele>1468.2</ele>
        <time>2020-06-27T14:17:48.881Z</time>
      </trkpt>
      <trkpt lat="44.90035" lon="5.46759">
        <ele>1468.1</ele>
        <time>2020-06-27T14:17:56.478Z</time>
      </trkpt>
      <trkpt lat="44.90032" lon="5.46758">
        <ele>1468.6</ele>
        <time>2020-06-27T14:18:04.077Z</time>
      </trkpt>
      <trkpt lat="44.90033" lon="5.46757">
        <ele>1468.4</ele>
        <time>2020-06-27T14:18:11.678Z</time>
      </trkpt>
      <trkpt lat="44.90012" lon="5.46811">
        <ele>1475.6</ele>
        <time>2020-06-27T14:18:19.319Z</time>
      </trkpt>
      <trkpt lat="44.89985" lon="5.46897">
        <ele>1488.5</ele>
        <time>2020-06-27T14:18:27.024Z</time>
      </trkpt>
      <trkpt lat="44.89985" lon="5.46894">
        <ele>1488.4</ele>
        <time>2020-06-27T14:18:34.731Z</time>
      </trkpt>
      <trkpt lat="44.89982" lon="5.46894">
        <ele>1489.2</ele>
        <time>2020-06-27T14:18:42.440Z</time>
      </trkpt>
      <trkpt lat="44.8998" lon="5.46891">
        <ele>1489.7</ele>
        <time>2020-06-27T14:18:50.152Z</time>
      </trkpt>
      <trkpt lat="44.89977" lon="5.46901">
        <ele>1491</ele>
        <time>2020-06-27T14:18:57.871Z</time>
      </trkpt>
      <trkpt lat="44.89977" lon="5.46915">
        <ele>1491.8</ele>
        <time>2020-06-27T14:19:05.599Z</time>
      </trkpt>
      <trkpt lat="44.89981" lon="5.46939">
        <ele>1492.1</ele>
        <time>2020-06-27T14:19:13.344Z</time>
      </trkpt>
      <trkpt lat="44.89985" lon="5.46946">
        <ele>1491.3</ele>
        <time>2020-06-27T14:19:21.095Z</time>
      </trkpt>
      <trkpt lat="44.90001" lon="5.46964">
        <ele>1487.6</ele>
        <time>2020-06-27T14:19:28.865Z</time>
      </trkpt>
      <trkpt lat="44.90004" lon="5.46976">
        <ele>1487.2</ele>
        <time>2020-06-27T14:19:36.644Z</time>
      </trkpt>
      <trkpt lat="44.90006" lon="5.46992">
        <ele>1487.1</ele>
        <time>2020-06-27T14:19:44.434Z</time>
      </trkpt>
      <trkpt lat="44.90003" lon="5.47017">
        <ele>1488.6</ele>
        <time>2020-06-27T14:19:52.241Z</time>
      </trkpt>
      <trkpt lat="44.90005" lon="5.47038">
        <ele>1487.1</ele>
        <time>2020-06-27T14:20:00.061Z</time>
      </trkpt>
      <trkpt lat="44.90003" lon="5.47047">
        <ele>1487.1</ele>
        <time>2020-06-27T14:20:07.888Z</time>
      </trkpt>
      <trkpt lat="44.9" lon="5.47055">
        <ele>1487.4</ele>
        <time>2020-06-27T14:20:15.721Z</time>
      </trkpt>
      <trkpt lat="44.89996" lon="5.4706">
        <ele>1488.1</ele>
        <time>2020-06-27T14:20:23.559Z</time>
      </trkpt>
      <trkpt lat="44.89988" lon="5.47066">
        <ele>1489.6</ele>
        <time>2020-06-27T14:20:31.405Z</time>
      </trkpt>
      <trkpt lat="44.89962" lon="5.47095">
        <ele>1489.9</ele>
        <time>2020-06-27T14:20:39.282Z</time>
      </trkpt>
      <trkpt lat="44.89955" lon="5.47101">
        <ele>1489.9</ele>
        <time>2020-06-27T14:20:47.167Z</time>
      </trkpt>
      <trkpt lat="44.89944" lon="5.47105">
        <ele>1491.6</ele>
        <time>2020-06-27T14:20:55.063Z</time>
      </trkpt>
      <trkpt lat="44.89941" lon="5.47112">
        <ele>1491.2</ele>
        <time>2020-06-27T14:21:02.964Z</time>
      </trkpt>
      <trkpt lat="44.89936" lon="5.47132">
        <ele>1489.6</ele>
        <time>2020-06-27T14:21:10.879Z</time>
      </trkpt>
      <trkpt lat="44.89933" lon="5.47139">
        <ele>1489.5</ele>
        <time>2020-06-27T14:21:18.800Z</time>
      </trkpt>
      <trkpt lat="44.89907" lon="5.47166">
        <ele>1492.5</ele>
        <time>2020-06-27T14:21:26.751Z</time>
      </trkpt>
      <trkpt lat="44.89901" lon="5.4717">
        <ele>1493.1</ele>
        <time>2020-06-27T14:21:34.709Z</time>
      </trkpt>
      <trkpt lat="44.89895" lon="5.47177">
        <ele>1493.3</ele>
        <time>2020-06-27T14:21:42.674Z</time>
      </trkpt>
      <trkpt lat="44.89891" lon="5.47198">
        <ele>1491.2</ele>
        <time>2020-06-27T14:21:50.653Z</time>
      </trkpt>
      <trkpt lat="44.89889" lon="5.47218">
        <ele>1489.2</ele>
        <time>2020-06-27T14:21:58.646Z</time>
      </trkpt>
      <trkpt lat="44.89887" lon="5.47231">
        <ele>1489.7</ele>
        <time>2020-06-27T14:22:06.647Z</time>
      </trkpt>
      <trkpt lat="44.89883" lon="5.47243">
        <ele>1488.6</ele>
        <time>2020-06-27T14:22:14.658Z</time>
      </trkpt>
      <trkpt lat="44.89872" lon="5.47263">
        <ele>1487</ele>
        <time>2020-06-27T14:22:22.685Z</time>
      </trkpt>
      <trkpt lat="44.89871" lon="5.47272">
        <ele>1486</ele>
        <time>2020-06-27T14:22:30.718Z</time>
      </trkpt>
      <trkpt lat="44.89878" lon="5.4733">
        <ele>1481.2</ele>
        <time>2020-06-27T14:22:38.791Z</time>
      </trkpt>
      <trkpt lat="44.89876" lon="5.47346">
        <ele>1480.2</ele>
        <time>2020-06-27T14:22:46.875Z</time>
      </trkpt>
      <trkpt lat="44.8987" lon="5.47358">
        <ele>1479.7</ele>
        <time>2020-06-27T14:22:54.968Z</time>
      </trkpt>
      <trkpt lat="44.89863" lon="5.47363">
        <ele>1479.8</ele>
        <time>2020-06-27T14:23:03.069Z</time>
      </trkpt>
      <trkpt lat="44.89856" lon="5.4736">
        <ele>1480.4</ele>
        <time>2020-06-27T14:23:11.176Z</time>
      </trkpt>
      <trkpt lat="44.89838" lon="5.47325">
        <ele>1483.6</ele>
        <time>2020-06-27T14:23:19.312Z</time>
      </trkpt>
      <trkpt lat="44.8983" lon="5.47319">
        <ele>1484.4</ele>
        <time>2020-06-27T14:23:27.456Z</time>
      </trkpt>
      <trkpt lat="44.89822" lon="5.47315">
        <ele>1485.2</ele>
        <time>2020-06-27T14:23:35.609Z</time>
      </trkpt>
      <trkpt lat="44.89812" lon="5.47312">
        <ele>1485.9</ele>
        <time>2020-06-27T14:23:43.771Z</time>
      </trkpt>
      <trkpt lat="44.89803" lon="5.47306">
        <ele>1486.8</ele>
        <time>2020-06-27T14:23:51.943Z</time>
      </trkpt>
      <trkpt lat="44.89798" lon="5.47301">
        <ele>1487.4</ele>
        <time>2020-06-27T14:24:00.120Z</time>
      </trkpt>
      <trkpt lat="44.89782" lon="5.47271">
        <ele>1489.9</ele>
        <time>2020-06-27T14:24:08.323Z</time>
      </trkpt>
      <trkpt lat="44.89777" lon="5.47266">
        <ele>1490.3</ele>
        <time>2020-06-27T14:24:16.531Z</time>
      </trkpt>
      <trkpt lat="44.89767" lon="5.47265">
        <ele>1490.6</ele>
        <time>2020-06-27T14:24:24.749Z</time>
      </trkpt>
      <trkpt lat="44.89748" lon="5.47278">
        <ele>1490.8</ele>
        <time>2020-06-27T14:24:32.986Z</time>
      </trkpt>
      <trkpt lat="44.89741" lon="5.47294">
        <ele>1490.6</ele>
        <time>2020-06-27T14:24:41.236Z</time>
      </trkpt>
      <trkpt lat="44.89739" lon="5.47309">
        <ele>1490.2</ele>
        <time>2020-06-27T14:24:49.496Z</time>
      </trkpt>
      <trkpt lat="44.89744" lon="5.47337">
        <ele>1489.3</ele>
        <time>2020-06-27T14:24:57.775Z</time>
      </trkpt>
      <trkpt lat="44.89745" lon="5.47364">
        <ele>1489.6</ele>
        <time>2020-06-27T14:25:06.073Z</time>
      </trkpt>
      <trkpt lat="44.89747" lon="5.47376">
        <ele>1489.5</ele>
        <time>2020-06-27T14:25:14.379Z</time>
      </trkpt>
      <trkpt lat="44.89742" lon="5.47403">
        <ele>1490.3</ele>
        <time>2020-06-27T14:25:22.703Z</time>
      </trkpt>
      <trkpt lat="44.89728" lon="5.47432">
        <ele>1491.5</ele>
        <time>2020-06-27T14:25:31.051Z</time>
      </trkpt>
      <trkpt lat="44.89696" lon="5.47478">
        <ele>1495.5</ele>
        <time>2020-06-27T14:25:39.442Z</time>
      </trkpt>
      <trkpt lat="44.89691" lon="5.47491">
        <ele>1497.5</ele>
        <time>2020-06-27T14:25:47.842Z</time>
      </trkpt>
      <trkpt lat="44.89683" lon="5.47522">
        <ele>1501.9</ele>
        <time>2020-06-27T14:25:56.264Z</time>
      </trkpt>
      <trkpt lat="44.89677" lon="5.47532">
        <ele>1503.4</ele>
        <time>2020-06-27T14:26:04.696Z</time>
      </trkpt>
      <trkpt lat="44.8967" lon="5.47537">
        <ele>1504.5</ele>
        <time>2020-06-27T14:26:13.134Z</time>
      </trkpt>
      <trkpt lat="44.89664" lon="5.47538">
        <ele>1505.1</ele>
        <time>2020-06-27T14:26:21.579Z</time>
      </trkpt>
      <trkpt lat="44.89655" lon="5.47537">
        <ele>1505.9</ele>
        <time>2020-06-27T14:26:30.031Z</time>
      </trkpt>
      <trkpt lat="44.89644" lon="5.47531">
        <ele>1506.4</ele>
        <time>2020-06-27T14:26:38.494Z</time>
      </trkpt>
      <trkpt lat="44.89635" lon="5.47518">
        <ele>1506.2</ele>
        <time>2020-06-27T14:26:46.970Z</time>
      </trkpt>
      <trkpt lat="44.89634" lon="5.47494">
        <ele>1504.3</ele>
        <time>2020-06-27T14:26:55.462Z</time>
      </trkpt>
      <trkpt lat="44.89631" lon="5.47483">
        <ele>1503.7</ele>
        <time>2020-06-27T14:27:03.962Z</time>
      </trkpt>
      <trkpt lat="44.89626" lon="5.47475">
        <ele>1503.5</ele>
        <time>2020-06-27T14:27:12.469Z</time>
      </trkpt>
      <trkpt lat="44.89602" lon="5.47452">
        <ele>1504.8</ele>
        <time>2020-06-27T14:27:21.004Z</time>
      </trkpt>
      <trkpt lat="44.8958" lon="5.47422">
        <ele>1506.6</ele>
        <time>2020-06-27T14:27:29.567Z</time>
      </trkpt>
      <trkpt lat="44.89572" lon="5.47415">
        <ele>1507.3</ele>
        <time>2020-06-27T14:27:38.139Z</time>
      </trkpt>
      <trkpt lat="44.89554" lon="5.47409">
        <ele>1508.8</ele>
        <time>2020-06-27T14:27:46.728Z</time>
      </trkpt>
      <trkpt lat="44.89534" lon="5.47413">
        <ele>1510.9</ele>
        <time>2020-06-27T14:27:55.336Z</time>
      </trkpt>
      <trkpt lat="44.89521" lon="5.4742">
        <ele>1512.7</ele>
        <time>2020-06-27T14:28:03.957Z</time>
      </trkpt>
      <trkpt lat="44.89509" lon="5.47429">
        <ele>1514.5</ele>
        <time>2020-06-27T14:28:12.591Z</time>
      </trkpt>
      <trkpt lat="44.89499" lon="5.47447">
        <ele>1515.1</ele>
        <time>2020-06-27T14:28:21.240Z</time>
      </trkpt>
      <trkpt lat="44.89494" lon="5.47462">
        <ele>1515.1</ele>
        <time>2020-06-27T14:28:29.901Z</time>
      </trkpt>
      <trkpt lat="44.89485" lon="5.47478">
        <ele>1516.5</ele>
        <time>2020-06-27T14:28:38.575Z</time>
      </trkpt>
      <trkpt lat="44.89475" lon="5.47505">
        <ele>1517.9</ele>
        <time>2020-06-27T14:28:47.269Z</time>
      </trkpt>
      <trkpt lat="44.89468" lon="5.47516">
        <ele>1518.3</ele>
        <time>2020-06-27T14:28:55.973Z</time>
      </trkpt>
      <trkpt lat="44.89461" lon="5.47521">
        <ele>1518.7</ele>
        <time>2020-06-27T14:29:04.685Z</time>
      </trkpt>
      <trkpt lat="44.89456" lon="5.47521">
        <ele>1519</ele>
        <time>2020-06-27T14:29:13.401Z</time>
      </trkpt>
      <trkpt lat="44.89439" lon="5.47514">
        <ele>1518.6</ele>
        <time>2020-06-27T14:29:22.134Z</time>
      </trkpt>
      <trkpt lat="44.89433" lon="5.47514">
        <ele>1518.4</ele>
        <time>2020-06-27T14:29:30.873Z</time>
      </trkpt>
      <trkpt lat="44.89412" lon="5.47518">
        <ele>1518.9</ele>
        <time>2020-06-27T14:29:39.632Z</time>
      </trkpt>
      <trkpt lat="44.89405" lon="5.47517">
        <ele>1519.1</ele>
        <time>2020-06-27T14:29:48.397Z</time>
      </trkpt>
      <trkpt lat="44.89393" lon="5.47505">
        <ele>1518.8</ele>
        <time>2020-06-27T14:29:57.175Z</time>
      </trkpt>
      <trkpt lat="44.89371" lon="5.47425">
        <ele>1513.8</ele>
        <time>2020-06-27T14:30:06.011Z</time>
      </trkpt>
      <trkpt lat="44.89369" lon="5.47404">
        <ele>1511.9</ele>
        <time>2020-06-27T14:30:14.861Z</time>
      </trkpt>
      <trkpt lat="44.89365" lon="5.47389">
        <ele>1509.8</ele>
        <time>2020-06-27T14:30:23.721Z</time>
      </trkpt>
      <trkpt lat="44.89364" lon="5.47375">
        <ele>1508.4</ele>
        <time>2020-06-27T14:30:32.591Z</time>
      </trkpt>
      <trkpt lat="44.89366" lon="5.47365">
        <ele>1508.3</ele>
        <time>2020-06-27T14:30:41.468Z</time>
      </trkpt>
      <trkpt lat="44.89363" lon="5.47346">
        <ele>1505.9</ele>
        <time>2020-06-27T14:30:50.358Z</time>
      </trkpt>
      <trkpt lat="44.89358" lon="5.47321">
        <ele>1502.4</ele>
        <time>2020-06-27T14:30:59.265Z</time>
      </trkpt>
      <trkpt lat="44.89361" lon="5.47273">
        <ele>1500.9</ele>
        <time>2020-06-27T14:31:08.204Z</time>
      </trkpt>
      <trkpt lat="44.89358" lon="5.47241">
        <ele>1498.8</ele>
        <time>2020-06-27T14:31:17.165Z</time>
      </trkpt>
      <trkpt lat="44.8936" lon="5.47208">
        <ele>1498.7</ele>
        <time>2020-06-27T14:31:26.148Z</time>
      </trkpt>
      <trkpt lat="44.89365" lon="5.47167">
        <ele>1499</ele>
        <time>2020-06-27T14:31:35.159Z</time>
      </trkpt>
      <trkpt lat="44.89375" lon="5.47128">
        <ele>1500.6</ele>
        <time>2020-06-27T14:31:44.197Z</time>
      </trkpt>
      <trkpt lat="44.89377" lon="5.47111">
        <ele>1501.6</ele>
        <time>2020-06-27T14:31:53.247Z</time>
      </trkpt>
      <trkpt lat="44.89377" lon="5.47067">
        <ele>1503.2</ele>
        <time>2020-06-27T14:32:02.326Z</time>
      </trkpt>
      <trkpt lat="44.8938" lon="5.47055">
        <ele>1504.3</ele>
        <time>2020-06-27T14:32:11.414Z</time>
      </trkpt>
      <trkpt lat="44.8938" lon="5.47046">
        <ele>1504.8</ele>
        <time>2020-06-27T14:32:20.508Z</time>
      </trkpt>
      <trkpt lat="44.89377" lon="5.47036">
        <ele>1504.9</ele>
        <time>2020-06-27T14:32:29.609Z</time>
      </trkpt>
      <trkpt lat="44.89371" lon="5.47029">
        <ele>1504.6</ele>
        <time>2020-06-27T14:32:38.717Z</time>
      </trkpt>
      <trkpt lat="44.89355" lon="5.46998">
        <ele>1506</ele>
        <time>2020-06-27T14:32:47.850Z</time>
      </trkpt>
      <trkpt lat="44.89351" lon="5.46971">
        <ele>1508</ele>
        <time>2020-06-27T14:32:57.002Z</time>
      </trkpt>
      <trkpt lat="44.8934" lon="5.46939">
        <ele>1511.8</ele>
        <time>2020-06-27T14:33:06.177Z</time>
      </trkpt>
      <trkpt lat="44.89334" lon="5.46929">
        <ele>1513</ele>
        <time>2020-06-27T14:33:15.361Z</time>
      </trkpt>
      <trkpt lat="44.8933" lon="5.46928">
        <ele>1512.8</ele>
        <time>2020-06-27T14:33:24.549Z</time>
      </trkpt>
      <trkpt lat="44.89325" lon="5.46929">
        <ele>1512.3</ele>
        <time>2020-06-27T14:33:33.742Z</time>
      </trkpt>
      <trkpt lat="44.89313" lon="5.46944">
        <ele>1509.1</ele>
        <time>2020-06-27T14:33:42.950Z</time>
      </trkpt>
      <trkpt lat="44.89301" lon="5.46974">
        <ele>1504.1</ele>
        <time>2020-06-27T14:33:52.181Z</time>
      </trkpt>
      <trkpt lat="44.8929" lon="5.46991">
        <ele>1499.8</ele>
        <time>2020-06-27T14:34:01.427Z</time>
      </trkpt>
      <trkpt lat="44.89284" lon="5.46995">
        <ele>1497.9</ele>
        <time>2020-06-27T14:34:10.679Z</time>
      </trkpt>
      <trkpt lat="44.89266" lon="5.47">
        <ele>1493.2</ele>
        <time>2020-06-27T14:34:19.948Z</time>
      </trkpt>
      <trkpt lat="44.89254" lon="5.4701">
        <ele>1488.9</ele>
        <time>2020-06-27T14:34:29.231Z</time>
      </trkpt>
      <trkpt lat="44.89245" lon="5.47013">
        <ele>1486.7</ele>
        <time>2020-06-27T14:34:38.523Z</time>
      </trkpt>
      <trkpt lat="44.89237" lon="5.47014">
        <ele>1485.2</ele>
        <time>2020-06-27T14:34:47.822Z</time>
      </trkpt>
      <trkpt lat="44.89225" lon="5.4701">
        <ele>1483.5</ele>
        <time>2020-06-27T14:34:57.133Z</time>
      </trkpt>
      <trkpt lat="44.89215" lon="5.47002">
        <ele>1482.8</ele>
        <time>2020-06-27T14:35:06.455Z</time>
      </trkpt>
      <trkpt lat="44.89205" lon="5.46986">
        <ele>1483.3</ele>
        <time>2020-06-27T14:35:15.791Z</time>
      </trkpt>
      <trkpt lat="44.89198" lon="5.46967">
        <ele>1485.6</ele>
        <time>2020-06-27T14:35:25.141Z</time>
      </trkpt>
      <trkpt lat="44.89193" lon="5.4694">
        <ele>1489.3</ele>
        <time>2020-06-27T14:35:34.510Z</time>
      </trkpt>
      <trkpt lat="44.89192" lon="5.46915">
        <ele>1493.4</ele>
        <time>2020-06-27T14:35:43.895Z</time>
      </trkpt>
      <trkpt lat="44.89188" lon="5.46875">
        <ele>1499.3</ele>
        <time>2020-06-27T14:35:53.307Z</time>
      </trkpt>
      <trkpt lat="44.89185" lon="5.46863">
        <ele>1500.3</ele>
        <time>2020-06-27T14:36:02.728Z</time>
      </trkpt>
      <trkpt lat="44.89181" lon="5.46854">
        <ele>1501.2</ele>
        <time>2020-06-27T14:36:12.156Z</time>
      </trkpt>
      <trkpt lat="44.89176" lon="5.46847">
        <ele>1501.6</ele>
        <time>2020-06-27T14:36:21.590Z</time>
      </trkpt>
      <trkpt lat="44.8917" lon="5.46842">
        <ele>1501.6</ele>
        <time>2020-06-27T14:36:31.032Z</time>
      </trkpt>
      <trkpt lat="44.89162" lon="5.4684">
        <ele>1500.9</ele>
        <time>2020-06-27T14:36:40.481Z</time>
      </trkpt>
      <trkpt lat="44.89146" lon="5.46843">
        <ele>1499.2</ele>
        <time>2020-06-27T14:36:49.945Z</time>
      </trkpt>
      <trkpt lat="44.89137" lon="5.46843">
        <ele>1498.5</ele>
        <time>2020-06-27T14:36:59.418Z</time>
      </trkpt>
      <trkpt lat="44.89131" lon="5.46842">
        <ele>1498.1</ele>
        <time>2020-06-27T14:37:08.896Z</time>
      </trkpt>
      <trkpt lat="44.89123" lon="5.46836">
        <ele>1498</ele>
        <time>2020-06-27T14:37:18.382Z</time>
      </trkpt>
      <trkpt lat="44.89116" lon="5.46817">
        <ele>1499</ele>
        <time>2020-06-27T14:37:27.883Z</time>
      </trkpt>
      <trkpt lat="44.89114" lon="5.46803">
        <ele>1500.2</ele>
        <time>2020-06-27T14:37:37.393Z</time>
      </trkpt>
      <trkpt lat="44.89105" lon="5.46784">
        <ele>1499</ele>
        <time>2020-06-27T14:37:46.918Z</time>
      </trkpt>
      <trkpt lat="44.89101" lon="5.46778">
        <ele>1498.3</ele>
        <time>2020-06-27T14:37:56.449Z</time>
      </trkpt>
      <trkpt lat="44.89083" lon="5.46764">
        <ele>1495.3</ele>
        <time>2020-06-27T14:38:05.999Z</time>
      </trkpt>
      <trkpt lat="44.89077" lon="5.46754">
        <ele>1494.2</ele>
        <time>2020-06-27T14:38:15.558Z</time>
      </trkpt>
      <trkpt lat="44.89071" lon="5.46727">
        <ele>1494.2</ele>
        <time>2020-06-27T14:38:25.136Z</time>
      </trkpt>
      <trkpt lat="44.8906" lon="5.46703">
        <ele>1493</ele>
        <time>2020-06-27T14:38:34.733Z</time>
      </trkpt>
      <trkpt lat="44.89051" lon="5.46674">
        <ele>1492.4</ele>
        <time>2020-06-27T14:38:44.351Z</time>
      </trkpt>
      <trkpt lat="44.89048" lon="5.46663">
        <ele>1492.3</ele>
        <time>2020-06-27T14:38:53.977Z</time>
      </trkpt>
      <trkpt lat="44.89047" lon="5.46647">
        <ele>1492.9</ele>
        <time>2020-06-27T14:39:03.613Z</time>
      </trkpt>
      <trkpt lat="44.89032" lon="5.46609">
        <ele>1494.1</ele>
        <time>2020-06-27T14:39:13.278Z</time>
      </trkpt>
      <trkpt lat="44.89021" lon="5.46592">
        <ele>1494.5</ele>
        <time>2020-06-27T14:39:22.959Z</time>
      </trkpt>
      <trkpt lat="44.89009" lon="5.46578">
        <ele>1494.3</ele>
        <time>2020-06-27T14:39:32.655Z</time>
      </trkpt>
      <trkpt lat="44.89002" lon="5.46561">
        <ele>1495.5</ele>
        <time>2020-06-27T14:39:42.364Z</time>
      </trkpt>
      <trkpt lat="44.8899" lon="5.46544">
        <ele>1495.7</ele>
        <time>2020-06-27T14:39:52.089Z</time>
      </trkpt>
      <trkpt lat="44.88982" lon="5.46536">
        <ele>1495.3</ele>
        <time>2020-06-27T14:40:01.823Z</time>
      </trkpt>
      <trkpt lat="44.8896" lon="5.46496">
        <ele>1497</ele>
        <time>2020-06-27T14:40:11.591Z</time>
      </trkpt>
      <trkpt lat="44.8895" lon="5.46485">
        <ele>1498.1</ele>
        <time>2020-06-27T14:40:21.370Z</time>
      </trkpt>
      <trkpt lat="44.88931" lon="5.46424">
        <ele>1506.8</ele>
        <time>2020-06-27T14:40:31.194Z</time>
      </trkpt>
      <trkpt lat="44.88924" lon="5.46417">
        <ele>1507.9</ele>
        <time>2020-06-27T14:40:41.026Z</time>
      </trkpt>
      <trkpt lat="44.88912" lon="5.46415">
        <ele>1508.7</ele>
        <time>2020-06-27T14:40:50.869Z</time>
      </trkpt>
      <trkpt lat="44.88902" lon="5.46416">
        <ele>1508.9</ele>
        <time>2020-06-27T14:41:00.721Z</time>
      </trkpt>
      <trkpt lat="44.88898" lon="5.46414">
        <ele>1509.2</ele>
        <time>2020-06-27T14:41:10.577Z</time>
      </trkpt>
      <trkpt lat="44.88887" lon="5.46398">
        <ele>1511.6</ele>
        <time>2020-06-27T14:41:20.448Z</time>
      </trkpt>
      <trkpt lat="44.88879" lon="5.46376">
        <ele>1514.6</ele>
        <time>2020-06-27T14:41:30.335Z</time>
      </trkpt>
      <trkpt lat="44.88877" lon="5.46361">
        <ele>1516.7</ele>
        <time>2020-06-27T14:41:40.232Z</time>
      </trkpt>
      <trkpt lat="44.88872" lon="5.46347">
        <ele>1518.8</ele>
        <time>2020-06-27T14:41:50.140Z</time>
      </trkpt>
      <trkpt lat="44.88867" lon="5.46319">
        <ele>1523</ele>
        <time>2020-06-27T14:42:00.068Z</time>
      </trkpt>
      <trkpt lat="44.88873" lon="5.46291">
        <ele>1525.2</ele>
        <time>2020-06-27T14:42:10.015Z</time>
      </trkpt>
      <trkpt lat="44.88872" lon="5.4628">
        <ele>1525.4</ele>
        <time>2020-06-27T14:42:19.969Z</time>
      </trkpt>
      <trkpt lat="44.88869" lon="5.46267">
        <ele>1525.6</ele>
        <time>2020-06-27T14:42:29.932Z</time>
      </trkpt>
      <trkpt lat="44.88861" lon="5.46252">
        <ele>1525.7</ele>
        <time>2020-06-27T14:42:39.908Z</time>
      </trkpt>
      <trkpt lat="44.88863" lon="5.46237">
        <ele>1526.1</ele>
        <time>2020-06-27T14:42:49.894Z</time>
      </trkpt>
      <trkpt lat="44.88861" lon="5.46229">
        <ele>1526.3</ele>
        <time>2020-06-27T14:42:59.886Z</time>
      </trkpt>
      <trkpt lat="44.88863" lon="5.46222">
        <ele>1526.5</ele>
        <time>2020-06-27T14:43:09.883Z</time>
      </trkpt>
      <trkpt lat="44.88872" lon="5.46204">
        <ele>1526.4</ele>
        <time>2020-06-27T14:43:19.894Z</time>
      </trkpt>
      <trkpt lat="44.8889" lon="5.46176">
        <ele>1524.1</ele>
        <time>2020-06-27T14:43:29.931Z</time>
      </trkpt>
      <trkpt lat="44.88893" lon="5.46161">
        <ele>1523.4</ele>
        <time>2020-06-27T14:43:39.978Z</time>
      </trkpt>
      <trkpt lat="44.88895" lon="5.46141">
        <ele>1522.5</ele>
        <time>2020-06-27T14:43:50.038Z</time>
      </trkpt>
      <trkpt lat="44.8889" lon="5.46116">
        <ele>1521.2</ele>
        <time>2020-06-27T14:44:00.116Z</time>
      </trkpt>
      <trkpt lat="44.88892" lon="5.46099">
        <ele>1519.6</ele>
        <time>2020-06-27T14:44:10.205Z</time>
      </trkpt>
      <trkpt lat="44.88915" lon="5.46051">
        <ele>1516.5</ele>
        <time>2020-06-27T14:44:20.333Z</time>
      </trkpt>
      <trkpt lat="44.88938" lon="5.46018">
        <ele>1514.6</ele>
        <time>2020-06-27T14:44:30.492Z</time>
      </trkpt>
      <trkpt lat="44.88943" lon="5.46004">
        <ele>1514.4</ele>
        <time>2020-06-27T14:44:40.661Z</time>
      </trkpt>
      <trkpt lat="44.88944" lon="5.45985">
        <ele>1514</ele>
        <time>2020-06-27T14:44:50.843Z</time>
      </trkpt>
      <trkpt lat="44.88941" lon="5.45966">
        <ele>1513.4</ele>
        <time>2020-06-27T14:45:01.038Z</time>
      </trkpt>
      <trkpt lat="44.88941" lon="5.45957">
        <ele>1512.9</ele>
        <time>2020-06-27T14:45:11.239Z</time>
      </trkpt>
      <trkpt lat="44.88945" lon="5.45944">
        <ele>1512.1</ele>
        <time>2020-06-27T14:45:21.450Z</time>
      </trkpt>
      <trkpt lat="44.88958" lon="5.45915">
        <ele>1510.2</ele>
        <time>2020-06-27T14:45:31.683Z</time>
      </trkpt>
      <trkpt lat="44.88959" lon="5.45875">
        <ele>1507</ele>
        <time>2020-06-27T14:45:41.943Z</time>
      </trkpt>
      <trkpt lat="44.88962" lon="5.45856">
        <ele>1504.4</ele>
        <time>2020-06-27T14:45:52.216Z</time>
      </trkpt>
      <trkpt lat="44.88962" lon="5.45843">
        <ele>1502.5</ele>
        <time>2020-06-27T14:46:02.498Z</time>
      </trkpt>
      <trkpt lat="44.88966" lon="5.45829">
        <ele>1500.6</ele>
        <time>2020-06-27T14:46:12.789Z</time>
      </trkpt>
      <trkpt lat="44.88974" lon="5.45811">
        <ele>1498.7</ele>
        <time>2020-06-27T14:46:23.095Z</time>
      </trkpt>
      <trkpt lat="44.88979" lon="5.45806">
        <ele>1498.9</ele>
        <time>2020-06-27T14:46:33.407Z</time>
      </trkpt>
      <trkpt lat="44.8898" lon="5.45807">
        <ele>1499.1</ele>
        <time>2020-06-27T14:46:43.720Z</time>
      </trkpt>
      <trkpt lat="44.88979" lon="5.45801">
        <ele>1498.5</ele>
        <time>2020-06-27T14:46:54.036Z</time>
      </trkpt>
      <trkpt lat="44.88979" lon="5.45803">
        <ele>1498.7</ele>
        <time>2020-06-27T14:47:04.353Z</time>
      </trkpt>
      <trkpt lat="44.88982" lon="5.458">
        <ele>1498.8</ele>
        <time>2020-06-27T14:47:14.673Z</time>
      </trkpt>
      <trkpt lat="44.88981" lon="5.45803">
        <ele>1498.9</ele>
        <time>2020-06-27T14:47:24.995Z</time>
      </trkpt>
      <trkpt lat="44.88983" lon="5.45803">
        <ele>1499.1</ele>
        <time>2020-06-27T14:47:35.318Z</time>
      </trkpt>
      <trkpt lat="44.8898" lon="5.45804">
        <ele>1498.9</ele>
        <time>2020-06-27T14:47:45.644Z</time>
      </trkpt>
      <trkpt lat="44.8898" lon="5.45807">
        <ele>1499.1</ele>
        <time>2020-06-27T14:47:55.972Z</time>
      </trkpt>
      <trkpt lat="44.88981" lon="5.45801">
        <ele>1498.8</ele>
        <time>2020-06-27T14:48:06.304Z</time>
      </trkpt>
      <trkpt lat="44.88979" lon="5.45798">
        <ele>1498.3</ele>
        <time>2020-06-27T14:48:16.638Z</time>
      </trkpt>
      <trkpt lat="44.88981" lon="5.458">
        <ele>1498.7</ele>
        <time>2020-06-27T14:48:26.975Z</time>
      </trkpt>
      <trkpt lat="44.88983" lon="5.458">
        <ele>1498.9</ele>
        <time>2020-06-27T14:48:37.313Z</time>
      </trkpt>
      <trkpt lat="44.88981" lon="5.45796">
        <ele>1498.2</ele>
        <time>2020-06-27T14:48:47.654Z</time>
      </trkpt>
      <trkpt lat="44.88979" lon="5.45798">
        <ele>1498.3</ele>
        <time>2020-06-27T14:48:57.997Z</time>
      </trkpt>
      <trkpt lat="44.88979" lon="5.45796">
        <ele>1498</ele>
        <time>2020-06-27T14:49:08.341Z</time>
      </trkpt>
      <trkpt lat="44.88987" lon="5.45793">
        <ele>1498.5</ele>
        <time>2020-06-27T14:49:18.693Z</time>
      </trkpt>
      <trkpt lat="44.88994" lon="5.45787">
        <ele>1498.4</ele>
        <time>2020-06-27T14:49:29.053Z</time>
      </trkpt>
      <trkpt lat="44.89009" lon="5.45786">
        <ele>1499.9</ele>
        <time>2020-06-27T14:49:39.427Z</time>
      </trkpt>
      <trkpt lat="44.89016" lon="5.45781">
        <ele>1500</ele>
        <time>2020-06-27T14:49:49.808Z</time>
      </trkpt>
      <trkpt lat="44.89032" lon="5.45744">
        <ele>1495.7</ele>
        <time>2020-06-27T14:50:00.218Z</time>
      </trkpt>
      <trkpt lat="44.89041" lon="5.45714">
        <ele>1492</ele>
        <time>2020-06-27T14:50:10.650Z</time>
      </trkpt>
      <trkpt lat="44.89057" lon="5.45696">
        <ele>1493.5</ele>
        <time>2020-06-27T14:50:21.101Z</time>
      </trkpt>
      <trkpt lat="44.89063" lon="5.45683">
        <ele>1493.4</ele>
        <time>2020-06-27T14:50:31.562Z</time>
      </trkpt>
      <trkpt lat="44.89062" lon="5.4567">
        <ele>1491.8</ele>
        <time>2020-06-27T14:50:42.031Z</time>
      </trkpt>
      <trkpt lat="44.89057" lon="5.45649">
        <ele>1488.5</ele>
        <time>2020-06-27T14:50:52.515Z</time>
      </trkpt>
      <trkpt lat="44.89059" lon="5.45639">
        <ele>1487.8</ele>
        <time>2020-06-27T14:51:03.006Z</time>
      </trkpt>
      <trkpt lat="44.89067" lon="5.45627">
        <ele>1488.5</ele>
        <time>2020-06-27T14:51:13.508Z</time>
      </trkpt>
      <trkpt lat="44.89077" lon="5.45622">
        <ele>1490.4</ele>
        <time>2020-06-27T14:51:24.021Z</time>
      </trkpt>
      <trkpt lat="44.8908" lon="5.45619">
        <ele>1490.9</ele>
        <time>2020-06-27T14:51:34.537Z</time>
      </trkpt>
      <trkpt lat="44.89083" lon="5.45611">
        <ele>1491</ele>
        <time>2020-06-27T14:51:45.059Z</time>
      </trkpt>
      <trkpt lat="44.89082" lon="5.45597">
        <ele>1490</ele>
        <time>2020-06-27T14:51:55.590Z</time>
      </trkpt>
      <trkpt lat="44.89078" lon="5.45588">
        <ele>1488.6</ele>
        <time>2020-06-27T14:52:06.128Z</time>
      </trkpt>
      <trkpt lat="44.89063" lon="5.45569">
        <ele>1484</ele>
        <time>2020-06-27T14:52:16.685Z</time>
      </trkpt>
      <trkpt lat="44.8906" lon="5.45556">
        <ele>1482.1</ele>
        <time>2020-06-27T14:52:27.251Z</time>
      </trkpt>
      <trkpt lat="44.89063" lon="5.45526">
        <ele>1479.4</ele>
        <time>2020-06-27T14:52:37.838Z</time>
      </trkpt>
      <trkpt lat="44.89068" lon="5.45513">
        <ele>1478.8</ele>
        <time>2020-06-27T14:52:48.434Z</time>
      </trkpt>
      <trkpt lat="44.89076" lon="5.45477">
        <ele>1476.3</ele>
        <time>2020-06-27T14:52:59.055Z</time>
      </trkpt>
      <trkpt lat="44.89075" lon="5.45467">
        <ele>1475</ele>
        <time>2020-06-27T14:53:09.683Z</time>
      </trkpt>
      <trkpt lat="44.89072" lon="5.45459">
        <ele>1473.7</ele>
        <time>2020-06-27T14:53:20.318Z</time>
      </trkpt>
      <trkpt lat="44.89068" lon="5.45457">
        <ele>1472.8</ele>
        <time>2020-06-27T14:53:30.956Z</time>
      </trkpt>
      <trkpt lat="44.89063" lon="5.45458">
        <ele>1472</ele>
        <time>2020-06-27T14:53:41.599Z</time>
      </trkpt>
      <trkpt lat="44.89045" lon="5.45471">
        <ele>1470.4</ele>
        <time>2020-06-27T14:53:52.261Z</time>
      </trkpt>
      <trkpt lat="44.89035" lon="5.45481">
        <ele>1470.2</ele>
        <time>2020-06-27T14:54:02.935Z</time>
      </trkpt>
      <trkpt lat="44.89024" lon="5.45498">
        <ele>1471.1</ele>
        <time>2020-06-27T14:54:13.624Z</time>
      </trkpt>
      <trkpt lat="44.89012" lon="5.4551">
        <ele>1471.4</ele>
        <time>2020-06-27T14:54:24.327Z</time>
      </trkpt>
      <trkpt lat="44.89003" lon="5.45512">
        <ele>1470.9</ele>
        <time>2020-06-27T14:54:35.038Z</time>
      </trkpt>
      <trkpt lat="44.88977" lon="5.45507">
        <ele>1468.4</ele>
        <time>2020-06-27T14:54:45.774Z</time>
      </trkpt>
      <trkpt lat="44.88952" lon="5.45505">
        <ele>1467.2</ele>
        <time>2020-06-27T14:54:56.534Z</time>
      </trkpt>
      <trkpt lat="44.88939" lon="5.45508">
        <ele>1468.9</ele>
        <time>2020-06-27T14:55:07.306Z</time>
      </trkpt>
      <trkpt lat="44.88925" lon="5.45519">
        <ele>1471.8</ele>
        <time>2020-06-27T14:55:18.093Z</time>
      </trkpt>
      <trkpt lat="44.8892" lon="5.4552">
        <ele>1472.4</ele>
        <time>2020-06-27T14:55:28.885Z</time>
      </trkpt>
      <trkpt lat="44.88912" lon="5.4552">
        <ele>1473.3</ele>
        <time>2020-06-27T14:55:39.684Z</time>
      </trkpt>
      <trkpt lat="44.88903" lon="5.45517">
        <ele>1473.9</ele>
        <time>2020-06-27T14:55:50.492Z</time>
      </trkpt>
      <trkpt lat="44.88895" lon="5.45516">
        <ele>1474.6</ele>
        <time>2020-06-27T14:56:01.308Z</time>
      </trkpt>
      <trkpt lat="44.88859" lon="5.45488">
        <ele>1475.7</ele>
        <time>2020-06-27T14:56:12.163Z</time>
      </trkpt>
      <trkpt lat="44.88839" lon="5.45458">
        <ele>1474.3</ele>
        <time>2020-06-27T14:56:23.045Z</time>
      </trkpt>
      <trkpt lat="44.88834" lon="5.45448">
        <ele>1473</ele>
        <time>2020-06-27T14:56:33.935Z</time>
      </trkpt>
      <trkpt lat="44.8883" lon="5.45431">
        <ele>1470.1</ele>
        <time>2020-06-27T14:56:44.837Z</time>
      </trkpt>
      <trkpt lat="44.88826" lon="5.4541">
        <ele>1467</ele>
        <time>2020-06-27T14:56:55.753Z</time>
      </trkpt>
      <trkpt lat="44.88814" lon="5.45371">
        <ele>1462.2</ele>
        <time>2020-06-27T14:57:06.697Z</time>
      </trkpt>
      <trkpt lat="44.88814" lon="5.45357">
        <ele>1459.7</ele>
        <time>2020-06-27T14:57:17.651Z</time>
      </trkpt>
      <trkpt lat="44.88819" lon="5.45352">
        <ele>1458.4</ele>
        <time>2020-06-27T14:57:28.611Z</time>
      </trkpt>
      <trkpt lat="44.88824" lon="5.45354">
        <ele>1458.4</ele>
        <time>2020-06-27T14:57:39.576Z</time>
      </trkpt>
      <trkpt lat="44.88831" lon="5.4536">
        <ele>1459</ele>
        <time>2020-06-27T14:57:50.548Z</time>
      </trkpt>
      <trkpt lat="44.88834" lon="5.45369">
        <ele>1460.4</ele>
        <time>2020-06-27T14:58:01.527Z</time>
      </trkpt>
      <trkpt lat="44.88844" lon="5.45384">
        <ele>1462.3</ele>
        <time>2020-06-27T14:58:12.520Z</time>
      </trkpt>
      <trkpt lat="44.8885" lon="5.4539">
        <ele>1462.6</ele>
        <time>2020-06-27T14:58:23.520Z</time>
      </trkpt>
      <trkpt lat="44.8886" lon="5.45404">
        <ele>1463.8</ele>
        <time>2020-06-27T14:58:34.533Z</time>
      </trkpt>
      <trkpt lat="44.88875" lon="5.45417">
        <ele>1464.3</ele>
        <time>2020-06-27T14:58:45.562Z</time>
      </trkpt>
      <trkpt lat="44.8889" lon="5.45424">
        <ele>1463.6</ele>
        <time>2020-06-27T14:58:56.606Z</time>
      </trkpt>
      <trkpt lat="44.88907" lon="5.45421">
        <ele>1461.4</ele>
        <time>2020-06-27T14:59:07.667Z</time>
      </trkpt>
      <trkpt lat="44.88926" lon="5.4541">
        <ele>1457.6</ele>
        <time>2020-06-27T14:59:18.747Z</time>
      </trkpt>
      <trkpt lat="44.88932" lon="5.45403">
        <ele>1455.9</ele>
        <time>2020-06-27T14:59:29.834Z</time>
      </trkpt>
      <trkpt lat="44.88934" lon="5.45395">
        <ele>1454.5</ele>
        <time>2020-06-27T14:59:40.927Z</time>
      </trkpt>
      <trkpt lat="44.88931" lon="5.45381">
        <ele>1452.9</ele>
        <time>2020-06-27T14:59:52.030Z</time>
      </trkpt>
      <trkpt lat="44.88933" lon="5.45366">
        <ele>1451.4</ele>
        <time>2020-06-27T15:00:03.143Z</time>
      </trkpt>
      <trkpt lat="44.88929" lon="5.45329">
        <ele>1448.8</ele>
        <time>2020-06-27T15:00:14.281Z</time>
      </trkpt>
      <trkpt lat="44.88936" lon="5.45315">
        <ele>1446.8</ele>
        <time>2020-06-27T15:00:25.430Z</time>
      </trkpt>
      <trkpt lat="44.88941" lon="5.45309">
        <ele>1445.7</ele>
        <time>2020-06-27T15:00:36.586Z</time>
      </trkpt>
      <trkpt lat="44.88949" lon="5.45304">
        <ele>1444.3</ele>
        <time>2020-06-27T15:00:47.750Z</time>
      </trkpt>
      <trkpt lat="44.88958" lon="5.45294">
        <ele>1442.6</ele>
        <time>2020-06-27T15:00:58.924Z</time>
      </trkpt>
      <trkpt lat="44.88959" lon="5.45284">
        <ele>1441.6</ele>
        <time>2020-06-27T15:01:10.105Z</time>
      </trkpt>
      <trkpt lat="44.88956" lon="5.45266">
        <ele>1439.5</ele>
        <time>2020-06-27T15:01:21.299Z</time>
      </trkpt>
      <trkpt lat="44.88956" lon="5.45217">
        <ele>1434.2</ele>
        <time>2020-06-27T15:01:32.525Z</time>
      </trkpt>
      <trkpt lat="44.88957" lon="5.45209">
        <ele>1433.5</ele>
        <time>2020-06-27T15:01:43.757Z</time>
      </trkpt>
      <trkpt lat="44.88963" lon="5.45195">
        <ele>1433</ele>
        <time>2020-06-27T15:01:54.999Z</time>
      </trkpt>
      <trkpt lat="44.88967" lon="5.45181">
        <ele>1432.3</ele>
        <time>2020-06-27T15:02:06.251Z</time>
      </trkpt>
      <trkpt lat="44.88966" lon="5.45169">
        <ele>1431.2</ele>
        <time>2020-06-27T15:02:17.511Z</time>
      </trkpt>
      <trkpt lat="44.88969" lon="5.45151">
        <ele>1430</ele>
        <time>2020-06-27T15:02:28.784Z</time>
      </trkpt>
      <trkpt lat="44.88966" lon="5.45138">
        <ele>1428.7</ele>
        <time>2020-06-27T15:02:40.065Z</time>
      </trkpt>
      <trkpt lat="44.88967" lon="5.4513">
        <ele>1428.4</ele>
        <time>2020-06-27T15:02:51.352Z</time>
      </trkpt>
      <trkpt lat="44.88973" lon="5.45101">
        <ele>1427.9</ele>
        <time>2020-06-27T15:03:02.659Z</time>
      </trkpt>
      <trkpt lat="44.88971" lon="5.45087">
        <ele>1426.9</ele>
        <time>2020-06-27T15:03:13.976Z</time>
      </trkpt>
      <trkpt lat="44.88967" lon="5.45077">
        <ele>1425.8</ele>
        <time>2020-06-27T15:03:25.301Z</time>
      </trkpt>
      <trkpt lat="44.88962" lon="5.45072">
        <ele>1424.9</ele>
        <time>2020-06-27T15:03:36.631Z</time>
      </trkpt>
      <trkpt lat="44.88943" lon="5.4507">
        <ele>1424.5</ele>
        <time>2020-06-27T15:03:47.979Z</time>
      </trkpt>
      <trkpt lat="44.8894" lon="5.45066">
        <ele>1424.4</ele>
        <time>2020-06-27T15:03:59.331Z</time>
      </trkpt>
      <trkpt lat="44.88935" lon="5.45055">
        <ele>1424.1</ele>
        <time>2020-06-27T15:04:10.692Z</time>
      </trkpt>
      <trkpt lat="44.88928" lon="5.4502">
        <ele>1420.6</ele>
        <time>2020-06-27T15:04:22.077Z</time>
      </trkpt>
      <trkpt lat="44.88928" lon="5.4501">
        <ele>1420.1</ele>
        <time>2020-06-27T15:04:33.469Z</time>
      </trkpt>
      <trkpt lat="44.88924" lon="5.44995">
        <ele>1419.2</ele>
        <time>2020-06-27T15:04:44.871Z</time>
      </trkpt>
      <trkpt lat="44.88917" lon="5.44946">
        <ele>1415.9</ele>
        <time>2020-06-27T15:04:56.307Z</time>
      </trkpt>
      <trkpt lat="44.88909" lon="5.44917">
        <ele>1413.3</ele>
        <time>2020-06-27T15:05:07.763Z</time>
      </trkpt>
      <trkpt lat="44.88904" lon="5.44913">
        <ele>1412.7</ele>
        <time>2020-06-27T15:05:19.225Z</time>
      </trkpt>
      <trkpt lat="44.88888" lon="5.4491">
        <ele>1411.8</ele>
        <time>2020-06-27T15:05:30.702Z</time>
      </trkpt>
      <trkpt lat="44.88882" lon="5.44906">
        <ele>1411.3</ele>
        <time>2020-06-27T15:05:42.185Z</time>
      </trkpt>
      <trkpt lat="44.8886" lon="5.44866">
        <ele>1409.7</ele>
        <time>2020-06-27T15:05:53.702Z</time>
      </trkpt>
      <trkpt lat="44.88855" lon="5.44844">
        <ele>1409.6</ele>
        <time>2020-06-27T15:06:05.234Z</time>
      </trkpt>
      <trkpt lat="44.88843" lon="5.44827">
        <ele>1410.2</ele>
        <time>2020-06-27T15:06:16.782Z</time>
      </trkpt>
      <trkpt lat="44.88831" lon="5.44815">
        <ele>1410.9</ele>
        <time>2020-06-27T15:06:28.344Z</time>
      </trkpt>
      <trkpt lat="44.8883" lon="5.44806">
        <ele>1410.8</ele>
        <time>2020-06-27T15:06:39.912Z</time>
      </trkpt>
      <trkpt lat="44.88822" lon="5.44801">
        <ele>1411.3</ele>
        <time>2020-06-27T15:06:51.488Z</time>
      </trkpt>
      <trkpt lat="44.8882" lon="5.44797">
        <ele>1411.4</ele>
        <time>2020-06-27T15:07:03.067Z</time>
      </trkpt>
      <trkpt lat="44.88789" lon="5.4478">
        <ele>1413.4</ele>
        <time>2020-06-27T15:07:14.678Z</time>
      </trkpt>
      <trkpt lat="44.8878" lon="5.44773">
        <ele>1414.6</ele>
        <time>2020-06-27T15:07:26.298Z</time>
      </trkpt>
      <trkpt lat="44.88771" lon="5.44757">
        <ele>1415.4</ele>
        <time>2020-06-27T15:07:37.932Z</time>
      </trkpt>
      <trkpt lat="44.88767" lon="5.44723">
        <ele>1414.8</ele>
        <time>2020-06-27T15:07:49.589Z</time>
      </trkpt>
      <trkpt lat="44.88768" lon="5.44699">
        <ele>1412.8</ele>
        <time>2020-06-27T15:08:01.262Z</time>
      </trkpt>
      <trkpt lat="44.88766" lon="5.44675">
        <ele>1412</ele>
        <time>2020-06-27T15:08:12.951Z</time>
      </trkpt>
      <trkpt lat="44.88767" lon="5.44663">
        <ele>1411.6</ele>
        <time>2020-06-27T15:08:24.648Z</time>
      </trkpt>
      <trkpt lat="44.8876" lon="5.44603">
        <ele>1406.9</ele>
        <time>2020-06-27T15:08:36.385Z</time>
      </trkpt>
      <trkpt lat="44.88761" lon="5.44594">
        <ele>1406.1</ele>
        <time>2020-06-27T15:08:48.128Z</time>
      </trkpt>
      <trkpt lat="44.88754" lon="5.44558">
        <ele>1403.2</ele>
        <time>2020-06-27T15:08:59.896Z</time>
      </trkpt>
      <trkpt lat="44.88749" lon="5.44543">
        <ele>1401.6</ele>
        <time>2020-06-27T15:09:11.676Z</time>
      </trkpt>
      <trkpt lat="44.88745" lon="5.44514">
        <ele>1397.5</ele>
        <time>2020-06-27T15:09:23.475Z</time>
      </trkpt>
      <trkpt lat="44.8874" lon="5.44502">
        <ele>1395.8</ele>
        <time>2020-06-27T15:09:35.283Z</time>
      </trkpt>
      <trkpt lat="44.88733" lon="5.44497">
        <ele>1395.2</ele>
        <time>2020-06-27T15:09:47.098Z</time>
      </trkpt>
      <trkpt lat="44.88725" lon="5.44496">
        <ele>1395.1</ele>
        <time>2020-06-27T15:09:58.921Z</time>
      </trkpt>
      <trkpt lat="44.88715" lon="5.44507">
        <ele>1396.8</ele>
        <time>2020-06-27T15:10:10.756Z</time>
      </trkpt>
      <trkpt lat="44.88714" lon="5.44524">
        <ele>1399.3</ele>
        <time>2020-06-27T15:10:22.602Z</time>
      </trkpt>
      <trkpt lat="44.88719" lon="5.44538">
        <ele>1401.2</ele>
        <time>2020-06-27T15:10:34.459Z</time>
      </trkpt>
      <trkpt lat="44.88719" lon="5.4455">
        <ele>1402.9</ele>
        <time>2020-06-27T15:10:46.324Z</time>
      </trkpt>
      <trkpt lat="44.88715" lon="5.44553">
        <ele>1403.2</ele>
        <time>2020-06-27T15:10:58.193Z</time>
      </trkpt>
      <trkpt lat="44.88705" lon="5.44554">
        <ele>1403.7</ele>
        <time>2020-06-27T15:11:10.071Z</time>
      </trkpt>
      <trkpt lat="44.88692" lon="5.44549">
        <ele>1402.8</ele>
        <time>2020-06-27T15:11:21.962Z</time>
      </trkpt>
      <trkpt lat="44.88688" lon="5.44545">
        <ele>1401.6</ele>
        <time>2020-06-27T15:11:33.857Z</time>
      </trkpt>
      <trkpt lat="44.88662" lon="5.44544">
        <ele>1401.1</ele>
        <time>2020-06-27T15:11:45.777Z</time>
      </trkpt>
      <trkpt lat="44.88639" lon="5.44527">
        <ele>1396.1</ele>
        <time>2020-06-27T15:11:57.721Z</time>
      </trkpt>
      <trkpt lat="44.88626" lon="5.44527">
        <ele>1395.9</ele>
        <time>2020-06-27T15:12:09.677Z</time>
      </trkpt>
      <trkpt lat="44.88619" lon="5.44529">
        <ele>1396.4</ele>
        <time>2020-06-27T15:12:21.640Z</time>
      </trkpt>
      <trkpt lat="44.88611" lon="5.44529">
        <ele>1396.2</ele>
        <time>2020-06-27T15:12:33.610Z</time>
      </trkpt>
      <trkpt lat="44.88595" lon="5.44525">
        <ele>1394.6</ele>
        <time>2020-06-27T15:12:45.596Z</time>
      </trkpt>
      <trkpt lat="44.8859" lon="5.44521">
        <ele>1393.3</ele>
        <time>2020-06-27T15:12:57.587Z</time>
      </trkpt>
      <trkpt lat="44.8858" lon="5.44521">
        <ele>1392.8</ele>
        <time>2020-06-27T15:13:09.587Z</time>
      </trkpt>
      <trkpt lat="44.88561" lon="5.44513">
        <ele>1389.9</ele>
        <time>2020-06-27T15:13:21.606Z</time>
      </trkpt>
      <trkpt lat="44.88554" lon="5.44511">
        <ele>1389.1</ele>
        <time>2020-06-27T15:13:33.632Z</time>
      </trkpt>
      <trkpt lat="44.88549" lon="5.44512">
        <ele>1389.1</ele>
        <time>2020-06-27T15:13:45.662Z</time>
      </trkpt>
      <trkpt lat="44.88543" lon="5.44509">
        <ele>1388</ele>
        <time>2020-06-27T15:13:57.699Z</time>
      </trkpt>
      <trkpt lat="44.8853" lon="5.44499">
        <ele>1384.8</ele>
        <time>2020-06-27T15:14:09.750Z</time>
      </trkpt>
      <trkpt lat="44.88524" lon="5.445">
        <ele>1384.7</ele>
        <time>2020-06-27T15:14:21.806Z</time>
      </trkpt>
      <trkpt lat="44.88514" lon="5.44494">
        <ele>1382.6</ele>
        <time>2020-06-27T15:14:33.873Z</time>
      </trkpt>
      <trkpt lat="44.88489" lon="5.44485">
        <ele>1378.8</ele>
        <time>2020-06-27T15:14:45.963Z</time>
      </trkpt>
      <trkpt lat="44.88483" lon="5.44479">
        <ele>1376.9</ele>
        <time>2020-06-27T15:14:58.060Z</time>
      </trkpt>
      <trkpt lat="44.88468" lon="5.44474">
        <ele>1374.8</ele>
        <time>2020-06-27T15:15:10.172Z</time>
      </trkpt>
      <trkpt lat="44.88462" lon="5.44469">
        <ele>1373.1</ele>
        <time>2020-06-27T15:15:22.290Z</time>
      </trkpt>
      <trkpt lat="44.88444" lon="5.44444">
        <ele>1371.7</ele>
        <time>2020-06-27T15:15:34.432Z</time>
      </trkpt>
      <trkpt lat="44.88441" lon="5.44439">
        <ele>1371.7</ele>
        <time>2020-06-27T15:15:46.578Z</time>
      </trkpt>
      <trkpt lat="44.88442" lon="5.44433">
        <ele>1370.9</ele>
        <time>2020-06-27T15:15:58.728Z</time>
      </trkpt>
    </trkseg>
  </trk>
</gpx>